<?xml version="1.0" encoding="UTF-8" standalone="no" ?>
<gpx xmlns="http://www.topografix.com/GPX/1/1" xmlns:xsi="http://www.w3.org/2001/XMLSchema-instance" xsi:schemaLocation="http://www.topografix.com/GPX/1/1 http://www.topografix.com/GPX/1/1/gpx.xsd" version="1.1" creator="VisuGPX - https://www.visugpx.com">
  <metadata>
    <name>Chipilly_12 km</name>
    <desc><![CDATA[Walkmeter Randonnée 15 juin 2014 09:07:26]]></desc>
  </metadata>
  <trk>
    <name><![CDATA[ch en s_chipilly]]></name>
    <trkseg>
      <trkpt lat="49.90923" lon="2.64952">
        <ele>40</ele>
        <time>2014-06-15T07:07:26Z</time>
      </trkpt>
      <trkpt lat="49.90924" lon="2.64952">
        <ele>38.9</ele>
        <time>2014-06-15T07:07:28Z</time>
      </trkpt>
      <trkpt lat="49.90939" lon="2.64948">
        <ele>38.9</ele>
        <time>2014-06-15T07:07:48Z</time>
      </trkpt>
      <trkpt lat="49.90952" lon="2.64951">
        <ele>44.3</ele>
        <time>2014-06-15T07:08:00Z</time>
      </trkpt>
      <trkpt lat="49.90966" lon="2.64952">
        <ele>47</ele>
        <time>2014-06-15T07:08:10Z</time>
      </trkpt>
      <trkpt lat="49.9098" lon="2.64952">
        <ele>43.2</ele>
        <time>2014-06-15T07:08:26Z</time>
      </trkpt>
      <trkpt lat="49.90994" lon="2.64953">
        <ele>45.5</ele>
        <time>2014-06-15T07:08:36Z</time>
      </trkpt>
      <trkpt lat="49.91008" lon="2.64955">
        <ele>47.5</ele>
        <time>2014-06-15T07:08:47Z</time>
      </trkpt>
      <trkpt lat="49.91021" lon="2.64963">
        <ele>47.3</ele>
        <time>2014-06-15T07:09:03Z</time>
      </trkpt>
      <trkpt lat="49.91035" lon="2.64968">
        <ele>49.1</ele>
        <time>2014-06-15T07:09:13Z</time>
      </trkpt>
      <trkpt lat="49.91049" lon="2.64972">
        <ele>54</ele>
        <time>2014-06-15T07:09:26Z</time>
      </trkpt>
      <trkpt lat="49.91063" lon="2.64972">
        <ele>58.2</ele>
        <time>2014-06-15T07:09:38Z</time>
      </trkpt>
      <trkpt lat="49.91076" lon="2.64978">
        <ele>59.8</ele>
        <time>2014-06-15T07:09:50Z</time>
      </trkpt>
      <trkpt lat="49.91086" lon="2.64993">
        <ele>61.3</ele>
        <time>2014-06-15T07:10:01Z</time>
      </trkpt>
      <trkpt lat="49.911" lon="2.64996">
        <ele>63.4</ele>
        <time>2014-06-15T07:10:13Z</time>
      </trkpt>
      <trkpt lat="49.91114" lon="2.64994">
        <ele>63.6</ele>
        <time>2014-06-15T07:10:24Z</time>
      </trkpt>
      <trkpt lat="49.91127" lon="2.64998">
        <ele>63.8</ele>
        <time>2014-06-15T07:10:36Z</time>
      </trkpt>
      <trkpt lat="49.91141" lon="2.65005">
        <ele>63.3</ele>
        <time>2014-06-15T07:10:50Z</time>
      </trkpt>
      <trkpt lat="49.91154" lon="2.65015">
        <ele>65.6</ele>
        <time>2014-06-15T07:11:02Z</time>
      </trkpt>
      <trkpt lat="49.91164" lon="2.65028">
        <ele>65.2</ele>
        <time>2014-06-15T07:11:14Z</time>
      </trkpt>
      <trkpt lat="49.91173" lon="2.65047">
        <ele>64.3</ele>
        <time>2014-06-15T07:11:25Z</time>
      </trkpt>
      <trkpt lat="49.91184" lon="2.6506">
        <ele>63.5</ele>
        <time>2014-06-15T07:11:36Z</time>
      </trkpt>
      <trkpt lat="49.91195" lon="2.65076">
        <ele>66.3</ele>
        <time>2014-06-15T07:11:48Z</time>
      </trkpt>
      <trkpt lat="49.91206" lon="2.65089">
        <ele>68.6</ele>
        <time>2014-06-15T07:11:57Z</time>
      </trkpt>
      <trkpt lat="49.91217" lon="2.65104">
        <ele>67.2</ele>
        <time>2014-06-15T07:12:12Z</time>
      </trkpt>
      <trkpt lat="49.91228" lon="2.65117">
        <ele>66.3</ele>
        <time>2014-06-15T07:12:21Z</time>
      </trkpt>
      <trkpt lat="49.91239" lon="2.65131">
        <ele>63.1</ele>
        <time>2014-06-15T07:12:31Z</time>
      </trkpt>
      <trkpt lat="49.91252" lon="2.6514">
        <ele>64.4</ele>
        <time>2014-06-15T07:12:42Z</time>
      </trkpt>
      <trkpt lat="49.91263" lon="2.65153">
        <ele>66.1</ele>
        <time>2014-06-15T07:12:56Z</time>
      </trkpt>
      <trkpt lat="49.91274" lon="2.65166">
        <ele>69.3</ele>
        <time>2014-06-15T07:13:07Z</time>
      </trkpt>
      <trkpt lat="49.91285" lon="2.65172">
        <ele>71.9</ele>
        <time>2014-06-15T07:13:16Z</time>
      </trkpt>
      <trkpt lat="49.91296" lon="2.65172">
        <ele>73.1</ele>
        <time>2014-06-15T07:13:25Z</time>
      </trkpt>
      <trkpt lat="49.91309" lon="2.65182">
        <ele>73.2</ele>
        <time>2014-06-15T07:13:35Z</time>
      </trkpt>
      <trkpt lat="49.91322" lon="2.65192">
        <ele>71.2</ele>
        <time>2014-06-15T07:13:45Z</time>
      </trkpt>
      <trkpt lat="49.91335" lon="2.65198">
        <ele>72.6</ele>
        <time>2014-06-15T07:13:56Z</time>
      </trkpt>
      <trkpt lat="49.91349" lon="2.65203">
        <ele>74</ele>
        <time>2014-06-15T07:14:05Z</time>
      </trkpt>
      <trkpt lat="49.91362" lon="2.65214">
        <ele>73.1</ele>
        <time>2014-06-15T07:14:13Z</time>
      </trkpt>
      <trkpt lat="49.91375" lon="2.65223">
        <ele>71.6</ele>
        <time>2014-06-15T07:14:25Z</time>
      </trkpt>
      <trkpt lat="49.9139" lon="2.65219">
        <ele>70.4</ele>
        <time>2014-06-15T07:14:36Z</time>
      </trkpt>
      <trkpt lat="49.91404" lon="2.6522">
        <ele>72.4</ele>
        <time>2014-06-15T07:14:43Z</time>
      </trkpt>
      <trkpt lat="49.91418" lon="2.65225">
        <ele>71.9</ele>
        <time>2014-06-15T07:14:57Z</time>
      </trkpt>
      <trkpt lat="49.91432" lon="2.65226">
        <ele>70.9</ele>
        <time>2014-06-15T07:15:08Z</time>
      </trkpt>
      <trkpt lat="49.91447" lon="2.65224">
        <ele>70.2</ele>
        <time>2014-06-15T07:15:16Z</time>
      </trkpt>
      <trkpt lat="49.91461" lon="2.65227">
        <ele>68.8</ele>
        <time>2014-06-15T07:15:25Z</time>
      </trkpt>
      <trkpt lat="49.91472" lon="2.65241">
        <ele>67.4</ele>
        <time>2014-06-15T07:15:33Z</time>
      </trkpt>
      <trkpt lat="49.91477" lon="2.65245">
        <ele>66.8</ele>
        <time>2014-06-15T07:15:36Z</time>
      </trkpt>
      <trkpt lat="49.9149" lon="2.65235">
        <ele>65</ele>
        <time>2014-06-15T07:15:47Z</time>
      </trkpt>
      <trkpt lat="49.91503" lon="2.65242">
        <ele>64.3</ele>
        <time>2014-06-15T07:16:02Z</time>
      </trkpt>
      <trkpt lat="49.91517" lon="2.65248">
        <ele>65</ele>
        <time>2014-06-15T07:16:12Z</time>
      </trkpt>
      <trkpt lat="49.91532" lon="2.65251">
        <ele>67.1</ele>
        <time>2014-06-15T07:16:21Z</time>
      </trkpt>
      <trkpt lat="49.91546" lon="2.65254">
        <ele>68.3</ele>
        <time>2014-06-15T07:16:30Z</time>
      </trkpt>
      <trkpt lat="49.91561" lon="2.65261">
        <ele>70</ele>
        <time>2014-06-15T07:16:43Z</time>
      </trkpt>
      <trkpt lat="49.91572" lon="2.65275">
        <ele>70.7</ele>
        <time>2014-06-15T07:16:51Z</time>
      </trkpt>
      <trkpt lat="49.91585" lon="2.65285">
        <ele>71</ele>
        <time>2014-06-15T07:17:03Z</time>
      </trkpt>
      <trkpt lat="49.91597" lon="2.65295">
        <ele>71.6</ele>
        <time>2014-06-15T07:17:12Z</time>
      </trkpt>
      <trkpt lat="49.91611" lon="2.65305">
        <ele>74.8</ele>
        <time>2014-06-15T07:17:25Z</time>
      </trkpt>
      <trkpt lat="49.91621" lon="2.65319">
        <ele>73.9</ele>
        <time>2014-06-15T07:17:37Z</time>
      </trkpt>
      <trkpt lat="49.91631" lon="2.65334">
        <ele>73</ele>
        <time>2014-06-15T07:17:46Z</time>
      </trkpt>
      <trkpt lat="49.91643" lon="2.65345">
        <ele>71.9</ele>
        <time>2014-06-15T07:17:56Z</time>
      </trkpt>
      <trkpt lat="49.91656" lon="2.65356">
        <ele>71.1</ele>
        <time>2014-06-15T07:18:06Z</time>
      </trkpt>
      <trkpt lat="49.91667" lon="2.65368">
        <ele>73.1</ele>
        <time>2014-06-15T07:18:17Z</time>
      </trkpt>
      <trkpt lat="49.9168" lon="2.65378">
        <ele>72.9</ele>
        <time>2014-06-15T07:18:28Z</time>
      </trkpt>
      <trkpt lat="49.9169" lon="2.65392">
        <ele>70.9</ele>
        <time>2014-06-15T07:18:40Z</time>
      </trkpt>
      <trkpt lat="49.91701" lon="2.65406">
        <ele>69.9</ele>
        <time>2014-06-15T07:18:51Z</time>
      </trkpt>
      <trkpt lat="49.91714" lon="2.65417">
        <ele>68.9</ele>
        <time>2014-06-15T07:19:01Z</time>
      </trkpt>
      <trkpt lat="49.91724" lon="2.65432">
        <ele>67.8</ele>
        <time>2014-06-15T07:19:13Z</time>
      </trkpt>
      <trkpt lat="49.91735" lon="2.65447">
        <ele>66.8</ele>
        <time>2014-06-15T07:19:24Z</time>
      </trkpt>
      <trkpt lat="49.91746" lon="2.65461">
        <ele>66</ele>
        <time>2014-06-15T07:19:34Z</time>
      </trkpt>
      <trkpt lat="49.91755" lon="2.65478">
        <ele>65</ele>
        <time>2014-06-15T07:19:45Z</time>
      </trkpt>
      <trkpt lat="49.91764" lon="2.65493">
        <ele>63.8</ele>
        <time>2014-06-15T07:19:55Z</time>
      </trkpt>
      <trkpt lat="49.91768" lon="2.65501">
        <ele>63</ele>
        <time>2014-06-15T07:20:01Z</time>
      </trkpt>
      <trkpt lat="49.91768" lon="2.65518">
        <ele>63.8</ele>
        <time>2014-06-15T07:20:12Z</time>
      </trkpt>
      <trkpt lat="49.91777" lon="2.65533">
        <ele>67.9</ele>
        <time>2014-06-15T07:20:19Z</time>
      </trkpt>
      <trkpt lat="49.91788" lon="2.65549">
        <ele>72</ele>
        <time>2014-06-15T07:20:26Z</time>
      </trkpt>
      <trkpt lat="49.91794" lon="2.65568">
        <ele>70.9</ele>
        <time>2014-06-15T07:20:34Z</time>
      </trkpt>
      <trkpt lat="49.91796" lon="2.6559">
        <ele>69.6</ele>
        <time>2014-06-15T07:20:43Z</time>
      </trkpt>
      <trkpt lat="49.918" lon="2.65611">
        <ele>70.1</ele>
        <time>2014-06-15T07:20:55Z</time>
      </trkpt>
      <trkpt lat="49.91808" lon="2.65629">
        <ele>71.3</ele>
        <time>2014-06-15T07:21:05Z</time>
      </trkpt>
      <trkpt lat="49.91816" lon="2.65648">
        <ele>71.2</ele>
        <time>2014-06-15T07:21:12Z</time>
      </trkpt>
      <trkpt lat="49.91819" lon="2.65669">
        <ele>65</ele>
        <time>2014-06-15T07:21:24Z</time>
      </trkpt>
      <trkpt lat="49.91826" lon="2.65687">
        <ele>67.3</ele>
        <time>2014-06-15T07:21:36Z</time>
      </trkpt>
      <trkpt lat="49.9183" lon="2.65709">
        <ele>69.8</ele>
        <time>2014-06-15T07:21:46Z</time>
      </trkpt>
      <trkpt lat="49.91837" lon="2.65729">
        <ele>72.5</ele>
        <time>2014-06-15T07:21:58Z</time>
      </trkpt>
      <trkpt lat="49.91844" lon="2.65748">
        <ele>72.1</ele>
        <time>2014-06-15T07:22:05Z</time>
      </trkpt>
      <trkpt lat="49.91845" lon="2.65755">
        <ele>71.4</ele>
        <time>2014-06-15T07:22:09Z</time>
      </trkpt>
      <trkpt lat="49.91855" lon="2.65754">
        <ele>71.6</ele>
        <time>2014-06-15T07:22:21Z</time>
      </trkpt>
      <trkpt lat="49.91862" lon="2.65774">
        <ele>75.1</ele>
        <time>2014-06-15T07:22:30Z</time>
      </trkpt>
      <trkpt lat="49.91874" lon="2.65786">
        <ele>77</ele>
        <time>2014-06-15T07:22:40Z</time>
      </trkpt>
      <trkpt lat="49.91887" lon="2.65796">
        <ele>78.1</ele>
        <time>2014-06-15T07:22:48Z</time>
      </trkpt>
      <trkpt lat="49.919" lon="2.65806">
        <ele>78.9</ele>
        <time>2014-06-15T07:23:01Z</time>
      </trkpt>
      <trkpt lat="49.91909" lon="2.65824">
        <ele>81</ele>
        <time>2014-06-15T07:23:09Z</time>
      </trkpt>
      <trkpt lat="49.91922" lon="2.65838">
        <ele>79.4</ele>
        <time>2014-06-15T07:23:18Z</time>
      </trkpt>
      <trkpt lat="49.91932" lon="2.65852">
        <ele>77.8</ele>
        <time>2014-06-15T07:23:30Z</time>
      </trkpt>
      <trkpt lat="49.9194" lon="2.6587">
        <ele>77.5</ele>
        <time>2014-06-15T07:23:38Z</time>
      </trkpt>
      <trkpt lat="49.91953" lon="2.6588">
        <ele>76.9</ele>
        <time>2014-06-15T07:23:50Z</time>
      </trkpt>
      <trkpt lat="49.91967" lon="2.65885">
        <ele>76.5</ele>
        <time>2014-06-15T07:24:00Z</time>
      </trkpt>
      <trkpt lat="49.91977" lon="2.65899">
        <ele>76</ele>
        <time>2014-06-15T07:24:10Z</time>
      </trkpt>
      <trkpt lat="49.91991" lon="2.65907">
        <ele>75.5</ele>
        <time>2014-06-15T07:24:21Z</time>
      </trkpt>
      <trkpt lat="49.92005" lon="2.659">
        <ele>75</ele>
        <time>2014-06-15T07:24:32Z</time>
      </trkpt>
      <trkpt lat="49.92018" lon="2.65911">
        <ele>74.8</ele>
        <time>2014-06-15T07:24:42Z</time>
      </trkpt>
      <trkpt lat="49.92026" lon="2.65929">
        <ele>74.6</ele>
        <time>2014-06-15T07:24:49Z</time>
      </trkpt>
      <trkpt lat="49.9204" lon="2.65928">
        <ele>74.3</ele>
        <time>2014-06-15T07:25:01Z</time>
      </trkpt>
      <trkpt lat="49.92054" lon="2.65931">
        <ele>74.1</ele>
        <time>2014-06-15T07:25:14Z</time>
      </trkpt>
      <trkpt lat="49.92069" lon="2.65934">
        <ele>73.8</ele>
        <time>2014-06-15T07:25:25Z</time>
      </trkpt>
      <trkpt lat="49.92083" lon="2.65935">
        <ele>73.6</ele>
        <time>2014-06-15T07:25:36Z</time>
      </trkpt>
      <trkpt lat="49.92098" lon="2.65938">
        <ele>73.4</ele>
        <time>2014-06-15T07:25:44Z</time>
      </trkpt>
      <trkpt lat="49.92109" lon="2.65954">
        <ele>73.2</ele>
        <time>2014-06-15T07:25:50Z</time>
      </trkpt>
      <trkpt lat="49.92123" lon="2.65952">
        <ele>72.9</ele>
        <time>2014-06-15T07:26:04Z</time>
      </trkpt>
      <trkpt lat="49.92136" lon="2.6596">
        <ele>72.7</ele>
        <time>2014-06-15T07:26:15Z</time>
      </trkpt>
      <trkpt lat="49.92149" lon="2.65965">
        <ele>72.5</ele>
        <time>2014-06-15T07:26:23Z</time>
      </trkpt>
      <trkpt lat="49.92156" lon="2.65973">
        <ele>72.4</ele>
        <time>2014-06-15T07:26:27Z</time>
      </trkpt>
      <trkpt lat="49.92164" lon="2.65954">
        <ele>72.2</ele>
        <time>2014-06-15T07:26:35Z</time>
      </trkpt>
      <trkpt lat="49.92177" lon="2.65944">
        <ele>72</ele>
        <time>2014-06-15T07:26:44Z</time>
      </trkpt>
      <trkpt lat="49.9219" lon="2.65936">
        <ele>74.3</ele>
        <time>2014-06-15T07:26:54Z</time>
      </trkpt>
      <trkpt lat="49.92203" lon="2.65943">
        <ele>76.8</ele>
        <time>2014-06-15T07:27:05Z</time>
      </trkpt>
      <trkpt lat="49.92216" lon="2.65954">
        <ele>79</ele>
        <time>2014-06-15T07:27:17Z</time>
      </trkpt>
      <trkpt lat="49.9223" lon="2.65957">
        <ele>78.7</ele>
        <time>2014-06-15T07:27:29Z</time>
      </trkpt>
      <trkpt lat="49.92245" lon="2.6596">
        <ele>77</ele>
        <time>2014-06-15T07:27:39Z</time>
      </trkpt>
      <trkpt lat="49.92259" lon="2.65961">
        <ele>76.4</ele>
        <time>2014-06-15T07:27:53Z</time>
      </trkpt>
      <trkpt lat="49.92274" lon="2.65962">
        <ele>75.9</ele>
        <time>2014-06-15T07:28:05Z</time>
      </trkpt>
      <trkpt lat="49.92288" lon="2.65961">
        <ele>75.5</ele>
        <time>2014-06-15T07:28:13Z</time>
      </trkpt>
      <trkpt lat="49.92303" lon="2.65961">
        <ele>75.1</ele>
        <time>2014-06-15T07:28:23Z</time>
      </trkpt>
      <trkpt lat="49.92317" lon="2.65965">
        <ele>74.6</ele>
        <time>2014-06-15T07:28:34Z</time>
      </trkpt>
      <trkpt lat="49.92333" lon="2.65966">
        <ele>74.3</ele>
        <time>2014-06-15T07:28:43Z</time>
      </trkpt>
      <trkpt lat="49.92346" lon="2.65974">
        <ele>73.9</ele>
        <time>2014-06-15T07:28:51Z</time>
      </trkpt>
      <trkpt lat="49.9236" lon="2.65982">
        <ele>73.4</ele>
        <time>2014-06-15T07:29:04Z</time>
      </trkpt>
      <trkpt lat="49.92374" lon="2.65986">
        <ele>72.9</ele>
        <time>2014-06-15T07:29:15Z</time>
      </trkpt>
      <trkpt lat="49.92387" lon="2.65997">
        <ele>72.3</ele>
        <time>2014-06-15T07:29:29Z</time>
      </trkpt>
      <trkpt lat="49.92398" lon="2.66012">
        <ele>71.9</ele>
        <time>2014-06-15T07:29:38Z</time>
      </trkpt>
      <trkpt lat="49.92406" lon="2.66029">
        <ele>71.5</ele>
        <time>2014-06-15T07:29:48Z</time>
      </trkpt>
      <trkpt lat="49.92417" lon="2.66044">
        <ele>71</ele>
        <time>2014-06-15T07:29:59Z</time>
      </trkpt>
      <trkpt lat="49.92426" lon="2.66061">
        <ele>72.9</ele>
        <time>2014-06-15T07:30:10Z</time>
      </trkpt>
      <trkpt lat="49.92435" lon="2.66078">
        <ele>74.7</ele>
        <time>2014-06-15T07:30:20Z</time>
      </trkpt>
      <trkpt lat="49.92445" lon="2.66095">
        <ele>78.1</ele>
        <time>2014-06-15T07:30:30Z</time>
      </trkpt>
      <trkpt lat="49.92454" lon="2.66113">
        <ele>85.2</ele>
        <time>2014-06-15T07:30:40Z</time>
      </trkpt>
      <trkpt lat="49.92464" lon="2.66127">
        <ele>86.2</ele>
        <time>2014-06-15T07:30:50Z</time>
      </trkpt>
      <trkpt lat="49.92476" lon="2.66142">
        <ele>83.7</ele>
        <time>2014-06-15T07:31:02Z</time>
      </trkpt>
      <trkpt lat="49.92486" lon="2.66157">
        <ele>82.5</ele>
        <time>2014-06-15T07:31:13Z</time>
      </trkpt>
      <trkpt lat="49.925" lon="2.66164">
        <ele>81.3</ele>
        <time>2014-06-15T07:31:24Z</time>
      </trkpt>
      <trkpt lat="49.92513" lon="2.6617">
        <ele>78.8</ele>
        <time>2014-06-15T07:31:36Z</time>
      </trkpt>
      <trkpt lat="49.92528" lon="2.66174">
        <ele>80.7</ele>
        <time>2014-06-15T07:31:44Z</time>
      </trkpt>
      <trkpt lat="49.92542" lon="2.66179">
        <ele>78.8</ele>
        <time>2014-06-15T07:31:53Z</time>
      </trkpt>
      <trkpt lat="49.92556" lon="2.66184">
        <ele>75.2</ele>
        <time>2014-06-15T07:32:12Z</time>
      </trkpt>
      <trkpt lat="49.92569" lon="2.66193">
        <ele>75.5</ele>
        <time>2014-06-15T07:32:22Z</time>
      </trkpt>
      <trkpt lat="49.92582" lon="2.66204">
        <ele>76.5</ele>
        <time>2014-06-15T07:32:33Z</time>
      </trkpt>
      <trkpt lat="49.92596" lon="2.66209">
        <ele>77.7</ele>
        <time>2014-06-15T07:32:46Z</time>
      </trkpt>
      <trkpt lat="49.92609" lon="2.66214">
        <ele>79</ele>
        <time>2014-06-15T07:32:51Z</time>
      </trkpt>
      <trkpt lat="49.92622" lon="2.66223">
        <ele>80.9</ele>
        <time>2014-06-15T07:32:57Z</time>
      </trkpt>
      <trkpt lat="49.92632" lon="2.66238">
        <ele>79.9</ele>
        <time>2014-06-15T07:33:13Z</time>
      </trkpt>
      <trkpt lat="49.92645" lon="2.66249">
        <ele>79.3</ele>
        <time>2014-06-15T07:33:24Z</time>
      </trkpt>
      <trkpt lat="49.92655" lon="2.66263">
        <ele>78.6</ele>
        <time>2014-06-15T07:33:36Z</time>
      </trkpt>
      <trkpt lat="49.92668" lon="2.66273">
        <ele>78</ele>
        <time>2014-06-15T07:33:46Z</time>
      </trkpt>
      <trkpt lat="49.9268" lon="2.66284">
        <ele>76.4</ele>
        <time>2014-06-15T07:33:55Z</time>
      </trkpt>
      <trkpt lat="49.92693" lon="2.66292">
        <ele>75.8</ele>
        <time>2014-06-15T07:34:06Z</time>
      </trkpt>
      <trkpt lat="49.92703" lon="2.66306">
        <ele>78</ele>
        <time>2014-06-15T07:34:15Z</time>
      </trkpt>
      <trkpt lat="49.92715" lon="2.66318">
        <ele>79.7</ele>
        <time>2014-06-15T07:34:30Z</time>
      </trkpt>
      <trkpt lat="49.92727" lon="2.66331">
        <ele>80.4</ele>
        <time>2014-06-15T07:34:40Z</time>
      </trkpt>
      <trkpt lat="49.92739" lon="2.66343">
        <ele>81</ele>
        <time>2014-06-15T07:34:50Z</time>
      </trkpt>
      <trkpt lat="49.9275" lon="2.66354">
        <ele>81.7</ele>
        <time>2014-06-15T07:35:01Z</time>
      </trkpt>
      <trkpt lat="49.92759" lon="2.66372">
        <ele>77</ele>
        <time>2014-06-15T07:35:10Z</time>
      </trkpt>
      <trkpt lat="49.92773" lon="2.66375">
        <ele>77.6</ele>
        <time>2014-06-15T07:35:21Z</time>
      </trkpt>
      <trkpt lat="49.92784" lon="2.66387">
        <ele>78.3</ele>
        <time>2014-06-15T07:35:35Z</time>
      </trkpt>
      <trkpt lat="49.92796" lon="2.66399">
        <ele>79</ele>
        <time>2014-06-15T07:35:47Z</time>
      </trkpt>
      <trkpt lat="49.92807" lon="2.66412">
        <ele>79.5</ele>
        <time>2014-06-15T07:35:57Z</time>
      </trkpt>
      <trkpt lat="49.92821" lon="2.66416">
        <ele>80</ele>
        <time>2014-06-15T07:36:06Z</time>
      </trkpt>
      <trkpt lat="49.92834" lon="2.66425">
        <ele>80.5</ele>
        <time>2014-06-15T07:36:16Z</time>
      </trkpt>
      <trkpt lat="49.92849" lon="2.66432">
        <ele>78.5</ele>
        <time>2014-06-15T07:36:35Z</time>
      </trkpt>
      <trkpt lat="49.92861" lon="2.66445">
        <ele>77.5</ele>
        <time>2014-06-15T07:36:43Z</time>
      </trkpt>
      <trkpt lat="49.92871" lon="2.6646">
        <ele>79.6</ele>
        <time>2014-06-15T07:36:51Z</time>
      </trkpt>
      <trkpt lat="49.9288" lon="2.66475">
        <ele>82.8</ele>
        <time>2014-06-15T07:37:03Z</time>
      </trkpt>
      <trkpt lat="49.92894" lon="2.66487">
        <ele>85.2</ele>
        <time>2014-06-15T07:37:12Z</time>
      </trkpt>
      <trkpt lat="49.92907" lon="2.66494">
        <ele>88</ele>
        <time>2014-06-15T07:37:18Z</time>
      </trkpt>
      <trkpt lat="49.92919" lon="2.66506">
        <ele>90.3</ele>
        <time>2014-06-15T07:37:26Z</time>
      </trkpt>
      <trkpt lat="49.92933" lon="2.66508">
        <ele>91</ele>
        <time>2014-06-15T07:37:38Z</time>
      </trkpt>
      <trkpt lat="49.92945" lon="2.66519">
        <ele>91.6</ele>
        <time>2014-06-15T07:37:48Z</time>
      </trkpt>
      <trkpt lat="49.92955" lon="2.66537">
        <ele>92.2</ele>
        <time>2014-06-15T07:37:58Z</time>
      </trkpt>
      <trkpt lat="49.92959" lon="2.66538">
        <ele>92.5</ele>
        <time>2014-06-15T07:38:02Z</time>
      </trkpt>
      <trkpt lat="49.9297" lon="2.66537">
        <ele>92.8</ele>
        <time>2014-06-15T07:38:08Z</time>
      </trkpt>
      <trkpt lat="49.92975" lon="2.66557">
        <ele>93</ele>
        <time>2014-06-15T07:38:14Z</time>
      </trkpt>
      <trkpt lat="49.92983" lon="2.66575">
        <ele>94.3</ele>
        <time>2014-06-15T07:38:24Z</time>
      </trkpt>
      <trkpt lat="49.92994" lon="2.66592">
        <ele>95.6</ele>
        <time>2014-06-15T07:38:31Z</time>
      </trkpt>
      <trkpt lat="49.92998" lon="2.66599">
        <ele>95.6</ele>
        <time>2014-06-15T07:38:34Z</time>
      </trkpt>
      <trkpt lat="49.93002" lon="2.6662">
        <ele>93.4</ele>
        <time>2014-06-15T07:38:42Z</time>
      </trkpt>
      <trkpt lat="49.93009" lon="2.66639">
        <ele>94.8</ele>
        <time>2014-06-15T07:38:52Z</time>
      </trkpt>
      <trkpt lat="49.93022" lon="2.66647">
        <ele>96.5</ele>
        <time>2014-06-15T07:39:05Z</time>
      </trkpt>
      <trkpt lat="49.93027" lon="2.66667">
        <ele>97.6</ele>
        <time>2014-06-15T07:39:13Z</time>
      </trkpt>
      <trkpt lat="49.93034" lon="2.66684">
        <ele>98.6</ele>
        <time>2014-06-15T07:39:21Z</time>
      </trkpt>
      <trkpt lat="49.9304" lon="2.66704">
        <ele>99.5</ele>
        <time>2014-06-15T07:39:28Z</time>
      </trkpt>
      <trkpt lat="49.93047" lon="2.66722">
        <ele>100.5</ele>
        <time>2014-06-15T07:39:36Z</time>
      </trkpt>
      <trkpt lat="49.93055" lon="2.66742">
        <ele>97.9</ele>
        <time>2014-06-15T07:39:53Z</time>
      </trkpt>
      <trkpt lat="49.93063" lon="2.6676">
        <ele>92.3</ele>
        <time>2014-06-15T07:40:06Z</time>
      </trkpt>
      <trkpt lat="49.93071" lon="2.66779">
        <ele>93.2</ele>
        <time>2014-06-15T07:40:14Z</time>
      </trkpt>
      <trkpt lat="49.93079" lon="2.66797">
        <ele>94</ele>
        <time>2014-06-15T07:40:21Z</time>
      </trkpt>
      <trkpt lat="49.93087" lon="2.66814">
        <ele>94.9</ele>
        <time>2014-06-15T07:40:29Z</time>
      </trkpt>
      <trkpt lat="49.93094" lon="2.66833">
        <ele>96.7</ele>
        <time>2014-06-15T07:40:39Z</time>
      </trkpt>
      <trkpt lat="49.93103" lon="2.66851">
        <ele>98.2</ele>
        <time>2014-06-15T07:40:47Z</time>
      </trkpt>
      <trkpt lat="49.93111" lon="2.6687">
        <ele>99.8</ele>
        <time>2014-06-15T07:40:54Z</time>
      </trkpt>
      <trkpt lat="49.93118" lon="2.66888">
        <ele>101.7</ele>
        <time>2014-06-15T07:41:01Z</time>
      </trkpt>
      <trkpt lat="49.93125" lon="2.66908">
        <ele>99.8</ele>
        <time>2014-06-15T07:41:14Z</time>
      </trkpt>
      <trkpt lat="49.93131" lon="2.66927">
        <ele>97.5</ele>
        <time>2014-06-15T07:41:22Z</time>
      </trkpt>
      <trkpt lat="49.93139" lon="2.66947">
        <ele>96.5</ele>
        <time>2014-06-15T07:41:35Z</time>
      </trkpt>
      <trkpt lat="49.93149" lon="2.66963">
        <ele>97.8</ele>
        <time>2014-06-15T07:41:43Z</time>
      </trkpt>
      <trkpt lat="49.93153" lon="2.6697">
        <ele>97.5</ele>
        <time>2014-06-15T07:41:47Z</time>
      </trkpt>
      <trkpt lat="49.93152" lon="2.66992">
        <ele>96.9</ele>
        <time>2014-06-15T07:41:54Z</time>
      </trkpt>
      <trkpt lat="49.93165" lon="2.67014">
        <ele>90</ele>
        <time>2014-06-15T07:42:05Z</time>
      </trkpt>
      <trkpt lat="49.93165" lon="2.67014">
        <ele>90</ele>
        <time>2014-06-15T07:45:53Z</time>
      </trkpt>
      <trkpt lat="49.93174" lon="2.67014">
        <ele>83.9</ele>
        <time>2014-06-15T07:45:54Z</time>
      </trkpt>
      <trkpt lat="49.93174" lon="2.67008">
        <ele>83.5</ele>
        <time>2014-06-15T07:45:58Z</time>
      </trkpt>
      <trkpt lat="49.93173" lon="2.67031">
        <ele>81.2</ele>
        <time>2014-06-15T07:46:20Z</time>
      </trkpt>
      <trkpt lat="49.93177" lon="2.67051">
        <ele>83.9</ele>
        <time>2014-06-15T07:46:36Z</time>
      </trkpt>
      <trkpt lat="49.93179" lon="2.67072">
        <ele>85.3</ele>
        <time>2014-06-15T07:46:49Z</time>
      </trkpt>
      <trkpt lat="49.9319" lon="2.67078">
        <ele>86.3</ele>
        <time>2014-06-15T07:46:58Z</time>
      </trkpt>
      <trkpt lat="49.93192" lon="2.671">
        <ele>89.5</ele>
        <time>2014-06-15T07:47:08Z</time>
      </trkpt>
      <trkpt lat="49.932" lon="2.67118">
        <ele>96.4</ele>
        <time>2014-06-15T07:47:18Z</time>
      </trkpt>
      <trkpt lat="49.93202" lon="2.6714">
        <ele>98.5</ele>
        <time>2014-06-15T07:47:27Z</time>
      </trkpt>
      <trkpt lat="49.93207" lon="2.67145">
        <ele>99.3</ele>
        <time>2014-06-15T07:47:30Z</time>
      </trkpt>
      <trkpt lat="49.93201" lon="2.67164">
        <ele>98.1</ele>
        <time>2014-06-15T07:47:40Z</time>
      </trkpt>
      <trkpt lat="49.932" lon="2.67185">
        <ele>103</ele>
        <time>2014-06-15T07:47:49Z</time>
      </trkpt>
      <trkpt lat="49.93203" lon="2.67192">
        <ele>101.2</ele>
        <time>2014-06-15T07:47:53Z</time>
      </trkpt>
      <trkpt lat="49.93198" lon="2.67213">
        <ele>97.7</ele>
        <time>2014-06-15T07:48:03Z</time>
      </trkpt>
      <trkpt lat="49.93198" lon="2.67235">
        <ele>97</ele>
        <time>2014-06-15T07:48:11Z</time>
      </trkpt>
      <trkpt lat="49.93196" lon="2.67257">
        <ele>96.6</ele>
        <time>2014-06-15T07:48:17Z</time>
      </trkpt>
      <trkpt lat="49.93203" lon="2.67277">
        <ele>95.7</ele>
        <time>2014-06-15T07:48:29Z</time>
      </trkpt>
      <trkpt lat="49.93206" lon="2.67299">
        <ele>94.9</ele>
        <time>2014-06-15T07:48:41Z</time>
      </trkpt>
      <trkpt lat="49.93209" lon="2.67321">
        <ele>93.8</ele>
        <time>2014-06-15T07:48:55Z</time>
      </trkpt>
      <trkpt lat="49.93213" lon="2.67342">
        <ele>92.8</ele>
        <time>2014-06-15T07:49:05Z</time>
      </trkpt>
      <trkpt lat="49.93214" lon="2.67364">
        <ele>92.5</ele>
        <time>2014-06-15T07:49:15Z</time>
      </trkpt>
      <trkpt lat="49.93217" lon="2.67385">
        <ele>92.2</ele>
        <time>2014-06-15T07:49:25Z</time>
      </trkpt>
      <trkpt lat="49.9322" lon="2.67406">
        <ele>91.9</ele>
        <time>2014-06-15T07:49:34Z</time>
      </trkpt>
      <trkpt lat="49.93223" lon="2.67427">
        <ele>91.6</ele>
        <time>2014-06-15T07:49:42Z</time>
      </trkpt>
      <trkpt lat="49.9323" lon="2.67446">
        <ele>91.3</ele>
        <time>2014-06-15T07:49:50Z</time>
      </trkpt>
      <trkpt lat="49.9323" lon="2.67468">
        <ele>90.8</ele>
        <time>2014-06-15T07:50:05Z</time>
      </trkpt>
      <trkpt lat="49.93237" lon="2.67489">
        <ele>90.5</ele>
        <time>2014-06-15T07:50:14Z</time>
      </trkpt>
      <trkpt lat="49.93241" lon="2.6751">
        <ele>90.2</ele>
        <time>2014-06-15T07:50:23Z</time>
      </trkpt>
      <trkpt lat="49.93244" lon="2.67531">
        <ele>91.2</ele>
        <time>2014-06-15T07:50:32Z</time>
      </trkpt>
      <trkpt lat="49.9325" lon="2.67551">
        <ele>95.5</ele>
        <time>2014-06-15T07:50:40Z</time>
      </trkpt>
      <trkpt lat="49.93255" lon="2.67571">
        <ele>96.6</ele>
        <time>2014-06-15T07:50:47Z</time>
      </trkpt>
      <trkpt lat="49.93261" lon="2.67591">
        <ele>97.8</ele>
        <time>2014-06-15T07:50:58Z</time>
      </trkpt>
      <trkpt lat="49.93266" lon="2.6761">
        <ele>98.8</ele>
        <time>2014-06-15T07:51:08Z</time>
      </trkpt>
      <trkpt lat="49.93272" lon="2.6763">
        <ele>96.1</ele>
        <time>2014-06-15T07:51:18Z</time>
      </trkpt>
      <trkpt lat="49.93272" lon="2.67651">
        <ele>92</ele>
        <time>2014-06-15T07:51:27Z</time>
      </trkpt>
      <trkpt lat="49.93273" lon="2.67675">
        <ele>88.7</ele>
        <time>2014-06-15T07:51:36Z</time>
      </trkpt>
      <trkpt lat="49.93275" lon="2.67696">
        <ele>86.8</ele>
        <time>2014-06-15T07:51:48Z</time>
      </trkpt>
      <trkpt lat="49.93278" lon="2.67717">
        <ele>89.5</ele>
        <time>2014-06-15T07:51:57Z</time>
      </trkpt>
      <trkpt lat="49.9328" lon="2.67739">
        <ele>87.1</ele>
        <time>2014-06-15T07:52:07Z</time>
      </trkpt>
      <trkpt lat="49.93281" lon="2.6776">
        <ele>87.7</ele>
        <time>2014-06-15T07:52:17Z</time>
      </trkpt>
      <trkpt lat="49.93283" lon="2.67782">
        <ele>89.1</ele>
        <time>2014-06-15T07:52:27Z</time>
      </trkpt>
      <trkpt lat="49.93289" lon="2.67802">
        <ele>90.8</ele>
        <time>2014-06-15T07:52:37Z</time>
      </trkpt>
      <trkpt lat="49.9329" lon="2.67804">
        <ele>90.7</ele>
        <time>2014-06-15T07:52:38Z</time>
      </trkpt>
      <trkpt lat="49.93293" lon="2.67782">
        <ele>90</ele>
        <time>2014-06-15T07:52:46Z</time>
      </trkpt>
      <trkpt lat="49.93298" lon="2.6776">
        <ele>89.1</ele>
        <time>2014-06-15T07:52:55Z</time>
      </trkpt>
      <trkpt lat="49.93302" lon="2.67752">
        <ele>88.8</ele>
        <time>2014-06-15T07:52:59Z</time>
      </trkpt>
      <trkpt lat="49.93305" lon="2.67731">
        <ele>93.9</ele>
        <time>2014-06-15T07:53:16Z</time>
      </trkpt>
      <trkpt lat="49.9331" lon="2.67708">
        <ele>90.8</ele>
        <time>2014-06-15T07:53:26Z</time>
      </trkpt>
      <trkpt lat="49.93315" lon="2.67687">
        <ele>89.1</ele>
        <time>2014-06-15T07:53:34Z</time>
      </trkpt>
      <trkpt lat="49.93321" lon="2.67668">
        <ele>87.5</ele>
        <time>2014-06-15T07:53:42Z</time>
      </trkpt>
      <trkpt lat="49.93327" lon="2.67646">
        <ele>93.5</ele>
        <time>2014-06-15T07:53:53Z</time>
      </trkpt>
      <trkpt lat="49.93336" lon="2.67629">
        <ele>95.9</ele>
        <time>2014-06-15T07:54:03Z</time>
      </trkpt>
      <trkpt lat="49.93341" lon="2.67608">
        <ele>94.3</ele>
        <time>2014-06-15T07:54:16Z</time>
      </trkpt>
      <trkpt lat="49.93348" lon="2.67589">
        <ele>91</ele>
        <time>2014-06-15T07:54:26Z</time>
      </trkpt>
      <trkpt lat="49.93356" lon="2.67569">
        <ele>90.5</ele>
        <time>2014-06-15T07:54:37Z</time>
      </trkpt>
      <trkpt lat="49.9336" lon="2.67548">
        <ele>90</ele>
        <time>2014-06-15T07:54:48Z</time>
      </trkpt>
      <trkpt lat="49.93366" lon="2.67529">
        <ele>89.5</ele>
        <time>2014-06-15T07:54:58Z</time>
      </trkpt>
      <trkpt lat="49.9337" lon="2.67508">
        <ele>89.1</ele>
        <time>2014-06-15T07:55:08Z</time>
      </trkpt>
      <trkpt lat="49.93378" lon="2.67488">
        <ele>88.5</ele>
        <time>2014-06-15T07:55:20Z</time>
      </trkpt>
      <trkpt lat="49.93387" lon="2.6747">
        <ele>89.8</ele>
        <time>2014-06-15T07:55:30Z</time>
      </trkpt>
      <trkpt lat="49.93392" lon="2.6745">
        <ele>91</ele>
        <time>2014-06-15T07:55:39Z</time>
      </trkpt>
      <trkpt lat="49.93398" lon="2.67429">
        <ele>92</ele>
        <time>2014-06-15T07:55:50Z</time>
      </trkpt>
      <trkpt lat="49.93409" lon="2.67415">
        <ele>89.6</ele>
        <time>2014-06-15T07:56:02Z</time>
      </trkpt>
      <trkpt lat="49.9342" lon="2.67428">
        <ele>89</ele>
        <time>2014-06-15T07:56:12Z</time>
      </trkpt>
      <trkpt lat="49.9343" lon="2.67425">
        <ele>88.7</ele>
        <time>2014-06-15T07:56:18Z</time>
      </trkpt>
      <trkpt lat="49.93442" lon="2.67435">
        <ele>88.1</ele>
        <time>2014-06-15T07:56:27Z</time>
      </trkpt>
      <trkpt lat="49.93452" lon="2.67434">
        <ele>87.8</ele>
        <time>2014-06-15T07:56:33Z</time>
      </trkpt>
      <trkpt lat="49.93459" lon="2.67452">
        <ele>87.1</ele>
        <time>2014-06-15T07:56:44Z</time>
      </trkpt>
      <trkpt lat="49.93472" lon="2.67458">
        <ele>91.6</ele>
        <time>2014-06-15T07:56:53Z</time>
      </trkpt>
      <trkpt lat="49.93476" lon="2.6748">
        <ele>94.4</ele>
        <time>2014-06-15T07:57:02Z</time>
      </trkpt>
      <trkpt lat="49.93483" lon="2.67498">
        <ele>95.4</ele>
        <time>2014-06-15T07:57:12Z</time>
      </trkpt>
      <trkpt lat="49.93498" lon="2.67504">
        <ele>93.8</ele>
        <time>2014-06-15T07:57:24Z</time>
      </trkpt>
      <trkpt lat="49.93504" lon="2.67524">
        <ele>93.4</ele>
        <time>2014-06-15T07:57:33Z</time>
      </trkpt>
      <trkpt lat="49.93511" lon="2.67532">
        <ele>94.4</ele>
        <time>2014-06-15T07:57:41Z</time>
      </trkpt>
      <trkpt lat="49.93517" lon="2.67551">
        <ele>95.5</ele>
        <time>2014-06-15T07:57:49Z</time>
      </trkpt>
      <trkpt lat="49.93524" lon="2.67571">
        <ele>95.5</ele>
        <time>2014-06-15T07:57:59Z</time>
      </trkpt>
      <trkpt lat="49.93526" lon="2.67593">
        <ele>94.7</ele>
        <time>2014-06-15T07:58:07Z</time>
      </trkpt>
      <trkpt lat="49.93533" lon="2.67614">
        <ele>93.6</ele>
        <time>2014-06-15T07:58:19Z</time>
      </trkpt>
      <trkpt lat="49.93542" lon="2.6763">
        <ele>93.6</ele>
        <time>2014-06-15T07:58:31Z</time>
      </trkpt>
      <trkpt lat="49.93554" lon="2.67641">
        <ele>94.7</ele>
        <time>2014-06-15T07:58:41Z</time>
      </trkpt>
      <trkpt lat="49.93565" lon="2.67655">
        <ele>95.6</ele>
        <time>2014-06-15T07:58:49Z</time>
      </trkpt>
      <trkpt lat="49.93577" lon="2.67666">
        <ele>97.6</ele>
        <time>2014-06-15T07:58:59Z</time>
      </trkpt>
      <trkpt lat="49.93591" lon="2.67675">
        <ele>98.4</ele>
        <time>2014-06-15T07:59:09Z</time>
      </trkpt>
      <trkpt lat="49.93605" lon="2.67684">
        <ele>97.3</ele>
        <time>2014-06-15T07:59:19Z</time>
      </trkpt>
      <trkpt lat="49.93618" lon="2.67692">
        <ele>96.2</ele>
        <time>2014-06-15T07:59:29Z</time>
      </trkpt>
      <trkpt lat="49.93631" lon="2.67702">
        <ele>99.3</ele>
        <time>2014-06-15T07:59:40Z</time>
      </trkpt>
      <trkpt lat="49.93641" lon="2.67717">
        <ele>102.7</ele>
        <time>2014-06-15T07:59:50Z</time>
      </trkpt>
      <trkpt lat="49.93649" lon="2.67722">
        <ele>103.8</ele>
        <time>2014-06-15T07:59:55Z</time>
      </trkpt>
      <trkpt lat="49.93648" lon="2.67747">
        <ele>102.8</ele>
        <time>2014-06-15T08:00:00Z</time>
      </trkpt>
      <trkpt lat="49.93645" lon="2.67768">
        <ele>102.1</ele>
        <time>2014-06-15T08:00:04Z</time>
      </trkpt>
      <trkpt lat="49.93646" lon="2.67776">
        <ele>101.3</ele>
        <time>2014-06-15T08:00:08Z</time>
      </trkpt>
      <trkpt lat="49.93659" lon="2.67783">
        <ele>99.2</ele>
        <time>2014-06-15T08:00:21Z</time>
      </trkpt>
      <trkpt lat="49.93667" lon="2.678">
        <ele>97.7</ele>
        <time>2014-06-15T08:00:32Z</time>
      </trkpt>
      <trkpt lat="49.93678" lon="2.67815">
        <ele>98.2</ele>
        <time>2014-06-15T08:00:45Z</time>
      </trkpt>
      <trkpt lat="49.93691" lon="2.67821">
        <ele>99.6</ele>
        <time>2014-06-15T08:00:54Z</time>
      </trkpt>
      <trkpt lat="49.93701" lon="2.67837">
        <ele>101.1</ele>
        <time>2014-06-15T08:01:04Z</time>
      </trkpt>
      <trkpt lat="49.93703" lon="2.67841">
        <ele>101.4</ele>
        <time>2014-06-15T08:01:06Z</time>
      </trkpt>
      <trkpt lat="49.93694" lon="2.67867">
        <ele>101.5</ele>
        <time>2014-06-15T08:01:07Z</time>
      </trkpt>
      <trkpt lat="49.93692" lon="2.67881">
        <ele>102</ele>
        <time>2014-06-15T08:01:10Z</time>
      </trkpt>
      <trkpt lat="49.93697" lon="2.67903">
        <ele>105.8</ele>
        <time>2014-06-15T08:01:19Z</time>
      </trkpt>
      <trkpt lat="49.93705" lon="2.67922">
        <ele>105.2</ele>
        <time>2014-06-15T08:01:30Z</time>
      </trkpt>
      <trkpt lat="49.93714" lon="2.67939">
        <ele>103.9</ele>
        <time>2014-06-15T08:01:42Z</time>
      </trkpt>
      <trkpt lat="49.93724" lon="2.67955">
        <ele>101.6</ele>
        <time>2014-06-15T08:01:53Z</time>
      </trkpt>
      <trkpt lat="49.93737" lon="2.67963">
        <ele>98</ele>
        <time>2014-06-15T08:02:04Z</time>
      </trkpt>
      <trkpt lat="49.93744" lon="2.67982">
        <ele>95.3</ele>
        <time>2014-06-15T08:02:16Z</time>
      </trkpt>
      <trkpt lat="49.93753" lon="2.68">
        <ele>93.7</ele>
        <time>2014-06-15T08:02:25Z</time>
      </trkpt>
      <trkpt lat="49.93765" lon="2.68013">
        <ele>90.2</ele>
        <time>2014-06-15T08:02:36Z</time>
      </trkpt>
      <trkpt lat="49.93775" lon="2.68027">
        <ele>85.6</ele>
        <time>2014-06-15T08:02:46Z</time>
      </trkpt>
      <trkpt lat="49.93786" lon="2.68042">
        <ele>82</ele>
        <time>2014-06-15T08:02:56Z</time>
      </trkpt>
      <trkpt lat="49.93793" lon="2.6806">
        <ele>83.8</ele>
        <time>2014-06-15T08:03:06Z</time>
      </trkpt>
      <trkpt lat="49.93805" lon="2.68077">
        <ele>83.2</ele>
        <time>2014-06-15T08:03:20Z</time>
      </trkpt>
      <trkpt lat="49.93812" lon="2.68096">
        <ele>84.8</ele>
        <time>2014-06-15T08:03:29Z</time>
      </trkpt>
      <trkpt lat="49.93813" lon="2.68119">
        <ele>83.6</ele>
        <time>2014-06-15T08:03:38Z</time>
      </trkpt>
      <trkpt lat="49.93809" lon="2.68141">
        <ele>79.5</ele>
        <time>2014-06-15T08:03:49Z</time>
      </trkpt>
      <trkpt lat="49.93799" lon="2.68153">
        <ele>81.7</ele>
        <time>2014-06-15T08:04:01Z</time>
      </trkpt>
      <trkpt lat="49.93786" lon="2.68164">
        <ele>83.9</ele>
        <time>2014-06-15T08:04:13Z</time>
      </trkpt>
      <trkpt lat="49.93774" lon="2.68174">
        <ele>86.4</ele>
        <time>2014-06-15T08:04:27Z</time>
      </trkpt>
      <trkpt lat="49.93761" lon="2.68182">
        <ele>87.5</ele>
        <time>2014-06-15T08:04:38Z</time>
      </trkpt>
      <trkpt lat="49.93748" lon="2.68192">
        <ele>88</ele>
        <time>2014-06-15T08:04:47Z</time>
      </trkpt>
      <trkpt lat="49.93736" lon="2.68201">
        <ele>91</ele>
        <time>2014-06-15T08:04:58Z</time>
      </trkpt>
      <trkpt lat="49.93724" lon="2.68212">
        <ele>91.7</ele>
        <time>2014-06-15T08:05:09Z</time>
      </trkpt>
      <trkpt lat="49.93712" lon="2.68222">
        <ele>91.6</ele>
        <time>2014-06-15T08:05:20Z</time>
      </trkpt>
      <trkpt lat="49.93699" lon="2.68229">
        <ele>91</ele>
        <time>2014-06-15T08:05:29Z</time>
      </trkpt>
      <trkpt lat="49.93688" lon="2.68241">
        <ele>90.3</ele>
        <time>2014-06-15T08:05:39Z</time>
      </trkpt>
      <trkpt lat="49.93676" lon="2.68253">
        <ele>89.7</ele>
        <time>2014-06-15T08:05:47Z</time>
      </trkpt>
      <trkpt lat="49.93664" lon="2.68262">
        <ele>88.8</ele>
        <time>2014-06-15T08:05:59Z</time>
      </trkpt>
      <trkpt lat="49.9365" lon="2.68271">
        <ele>88.2</ele>
        <time>2014-06-15T08:06:07Z</time>
      </trkpt>
      <trkpt lat="49.93639" lon="2.68284">
        <ele>88.8</ele>
        <time>2014-06-15T08:06:22Z</time>
      </trkpt>
      <trkpt lat="49.93627" lon="2.68296">
        <ele>89.5</ele>
        <time>2014-06-15T08:06:32Z</time>
      </trkpt>
      <trkpt lat="49.93615" lon="2.68308">
        <ele>90.1</ele>
        <time>2014-06-15T08:06:41Z</time>
      </trkpt>
      <trkpt lat="49.93603" lon="2.68321">
        <ele>90.7</ele>
        <time>2014-06-15T08:06:50Z</time>
      </trkpt>
      <trkpt lat="49.93592" lon="2.68332">
        <ele>89.4</ele>
        <time>2014-06-15T08:06:59Z</time>
      </trkpt>
      <trkpt lat="49.9358" lon="2.68346">
        <ele>87.4</ele>
        <time>2014-06-15T08:07:12Z</time>
      </trkpt>
      <trkpt lat="49.93568" lon="2.68355">
        <ele>87.8</ele>
        <time>2014-06-15T08:07:20Z</time>
      </trkpt>
      <trkpt lat="49.93555" lon="2.68365">
        <ele>88.4</ele>
        <time>2014-06-15T08:07:29Z</time>
      </trkpt>
      <trkpt lat="49.93542" lon="2.68376">
        <ele>89.1</ele>
        <time>2014-06-15T08:07:41Z</time>
      </trkpt>
      <trkpt lat="49.93533" lon="2.68393">
        <ele>89.6</ele>
        <time>2014-06-15T08:07:51Z</time>
      </trkpt>
      <trkpt lat="49.93522" lon="2.68405">
        <ele>89.3</ele>
        <time>2014-06-15T08:08:02Z</time>
      </trkpt>
      <trkpt lat="49.9351" lon="2.68415">
        <ele>88</ele>
        <time>2014-06-15T08:08:12Z</time>
      </trkpt>
      <trkpt lat="49.93498" lon="2.68429">
        <ele>85.9</ele>
        <time>2014-06-15T08:08:25Z</time>
      </trkpt>
      <trkpt lat="49.93487" lon="2.68443">
        <ele>83.9</ele>
        <time>2014-06-15T08:08:37Z</time>
      </trkpt>
      <trkpt lat="49.93474" lon="2.68455">
        <ele>84.8</ele>
        <time>2014-06-15T08:08:48Z</time>
      </trkpt>
      <trkpt lat="49.93461" lon="2.68463">
        <ele>87.2</ele>
        <time>2014-06-15T08:08:56Z</time>
      </trkpt>
      <trkpt lat="49.93448" lon="2.68468">
        <ele>88.2</ele>
        <time>2014-06-15T08:09:05Z</time>
      </trkpt>
      <trkpt lat="49.93434" lon="2.68471">
        <ele>88.4</ele>
        <time>2014-06-15T08:09:14Z</time>
      </trkpt>
      <trkpt lat="49.93422" lon="2.68482">
        <ele>88.7</ele>
        <time>2014-06-15T08:09:23Z</time>
      </trkpt>
      <trkpt lat="49.93408" lon="2.68483">
        <ele>88.9</ele>
        <time>2014-06-15T08:09:31Z</time>
      </trkpt>
      <trkpt lat="49.93396" lon="2.68497">
        <ele>89.2</ele>
        <time>2014-06-15T08:09:40Z</time>
      </trkpt>
      <trkpt lat="49.93386" lon="2.68512">
        <ele>89.6</ele>
        <time>2014-06-15T08:09:53Z</time>
      </trkpt>
      <trkpt lat="49.93374" lon="2.68525">
        <ele>89.9</ele>
        <time>2014-06-15T08:10:03Z</time>
      </trkpt>
      <trkpt lat="49.93363" lon="2.68539">
        <ele>90.3</ele>
        <time>2014-06-15T08:10:16Z</time>
      </trkpt>
      <trkpt lat="49.93351" lon="2.68549">
        <ele>90.5</ele>
        <time>2014-06-15T08:10:24Z</time>
      </trkpt>
      <trkpt lat="49.93342" lon="2.68558">
        <ele>90.7</ele>
        <time>2014-06-15T08:10:31Z</time>
      </trkpt>
      <trkpt lat="49.93335" lon="2.68558">
        <ele>90.8</ele>
        <time>2014-06-15T08:10:34Z</time>
      </trkpt>
      <trkpt lat="49.93328" lon="2.68576">
        <ele>90.7</ele>
        <time>2014-06-15T08:10:42Z</time>
      </trkpt>
      <trkpt lat="49.93317" lon="2.68591">
        <ele>85.7</ele>
        <time>2014-06-15T08:10:53Z</time>
      </trkpt>
      <trkpt lat="49.93303" lon="2.68598">
        <ele>81.8</ele>
        <time>2014-06-15T08:11:04Z</time>
      </trkpt>
      <trkpt lat="49.93291" lon="2.68611">
        <ele>80.2</ele>
        <time>2014-06-15T08:11:13Z</time>
      </trkpt>
      <trkpt lat="49.93277" lon="2.68618">
        <ele>82.7</ele>
        <time>2014-06-15T08:11:25Z</time>
      </trkpt>
      <trkpt lat="49.93263" lon="2.68618">
        <ele>81.5</ele>
        <time>2014-06-15T08:11:37Z</time>
      </trkpt>
      <trkpt lat="49.93248" lon="2.68621">
        <ele>79.9</ele>
        <time>2014-06-15T08:11:47Z</time>
      </trkpt>
      <trkpt lat="49.93234" lon="2.6862">
        <ele>76.7</ele>
        <time>2014-06-15T08:11:57Z</time>
      </trkpt>
      <trkpt lat="49.9322" lon="2.68622">
        <ele>74.9</ele>
        <time>2014-06-15T08:12:09Z</time>
      </trkpt>
      <trkpt lat="49.93206" lon="2.68623">
        <ele>73.5</ele>
        <time>2014-06-15T08:12:20Z</time>
      </trkpt>
      <trkpt lat="49.93191" lon="2.68621">
        <ele>70.5</ele>
        <time>2014-06-15T08:12:31Z</time>
      </trkpt>
      <trkpt lat="49.93177" lon="2.68621">
        <ele>69.7</ele>
        <time>2014-06-15T08:12:41Z</time>
      </trkpt>
      <trkpt lat="49.93162" lon="2.6862">
        <ele>69</ele>
        <time>2014-06-15T08:12:50Z</time>
      </trkpt>
      <trkpt lat="49.93149" lon="2.68622">
        <ele>67.8</ele>
        <time>2014-06-15T08:13:04Z</time>
      </trkpt>
      <trkpt lat="49.93135" lon="2.68623">
        <ele>67.5</ele>
        <time>2014-06-15T08:13:13Z</time>
      </trkpt>
      <trkpt lat="49.93121" lon="2.68629">
        <ele>66.4</ele>
        <time>2014-06-15T08:13:23Z</time>
      </trkpt>
      <trkpt lat="49.93107" lon="2.68634">
        <ele>63.6</ele>
        <time>2014-06-15T08:13:36Z</time>
      </trkpt>
      <trkpt lat="49.93093" lon="2.68641">
        <ele>63.1</ele>
        <time>2014-06-15T08:13:45Z</time>
      </trkpt>
      <trkpt lat="49.9308" lon="2.68647">
        <ele>62.7</ele>
        <time>2014-06-15T08:13:54Z</time>
      </trkpt>
      <trkpt lat="49.93066" lon="2.68651">
        <ele>62.1</ele>
        <time>2014-06-15T08:14:05Z</time>
      </trkpt>
      <trkpt lat="49.93052" lon="2.68658">
        <ele>61.5</ele>
        <time>2014-06-15T08:14:15Z</time>
      </trkpt>
      <trkpt lat="49.93032" lon="2.68658">
        <ele>59.5</ele>
        <time>2014-06-15T08:14:33Z</time>
      </trkpt>
      <trkpt lat="49.93032" lon="2.68658">
        <ele>59.5</ele>
        <time>2014-06-15T08:15:36Z</time>
      </trkpt>
      <trkpt lat="49.93025" lon="2.68651">
        <ele>57.5</ele>
        <time>2014-06-15T08:15:40Z</time>
      </trkpt>
      <trkpt lat="49.93025" lon="2.68651">
        <ele>57.5</ele>
        <time>2014-06-15T08:16:41Z</time>
      </trkpt>
      <trkpt lat="49.93025" lon="2.68651">
        <ele>56.9</ele>
        <time>2014-06-15T08:16:43Z</time>
      </trkpt>
      <trkpt lat="49.93021" lon="2.68672">
        <ele>56.1</ele>
        <time>2014-06-15T08:16:57Z</time>
      </trkpt>
      <trkpt lat="49.93022" lon="2.68678">
        <ele>55.2</ele>
        <time>2014-06-15T08:17:16Z</time>
      </trkpt>
      <trkpt lat="49.9301" lon="2.68691">
        <ele>55.9</ele>
        <time>2014-06-15T08:17:24Z</time>
      </trkpt>
      <trkpt lat="49.92998" lon="2.68702">
        <ele>57.8</ele>
        <time>2014-06-15T08:17:34Z</time>
      </trkpt>
      <trkpt lat="49.92989" lon="2.6872">
        <ele>55.9</ele>
        <time>2014-06-15T08:17:47Z</time>
      </trkpt>
      <trkpt lat="49.92978" lon="2.68734">
        <ele>52.8</ele>
        <time>2014-06-15T08:18:00Z</time>
      </trkpt>
      <trkpt lat="49.92965" lon="2.68746">
        <ele>51.6</ele>
        <time>2014-06-15T08:18:10Z</time>
      </trkpt>
      <trkpt lat="49.92956" lon="2.68762">
        <ele>51</ele>
        <time>2014-06-15T08:18:20Z</time>
      </trkpt>
      <trkpt lat="49.92943" lon="2.68775">
        <ele>50.4</ele>
        <time>2014-06-15T08:18:30Z</time>
      </trkpt>
      <trkpt lat="49.92929" lon="2.68784">
        <ele>49.7</ele>
        <time>2014-06-15T08:18:38Z</time>
      </trkpt>
      <trkpt lat="49.92917" lon="2.68794">
        <ele>47.5</ele>
        <time>2014-06-15T08:18:46Z</time>
      </trkpt>
      <trkpt lat="49.92904" lon="2.68805">
        <ele>47.3</ele>
        <time>2014-06-15T08:18:56Z</time>
      </trkpt>
      <trkpt lat="49.92893" lon="2.68793">
        <ele>44.9</ele>
        <time>2014-06-15T08:19:06Z</time>
      </trkpt>
      <trkpt lat="49.92892" lon="2.68773">
        <ele>45.9</ele>
        <time>2014-06-15T08:19:18Z</time>
      </trkpt>
      <trkpt lat="49.92901" lon="2.68755">
        <ele>45.6</ele>
        <time>2014-06-15T08:19:24Z</time>
      </trkpt>
      <trkpt lat="49.92905" lon="2.68734">
        <ele>45.2</ele>
        <time>2014-06-15T08:19:33Z</time>
      </trkpt>
      <trkpt lat="49.92905" lon="2.68712">
        <ele>44.6</ele>
        <time>2014-06-15T08:19:44Z</time>
      </trkpt>
      <trkpt lat="49.92904" lon="2.6869">
        <ele>44</ele>
        <time>2014-06-15T08:19:57Z</time>
      </trkpt>
      <trkpt lat="49.92908" lon="2.68642">
        <ele>41.8</ele>
        <time>2014-06-15T08:20:20Z</time>
      </trkpt>
      <trkpt lat="49.92908" lon="2.68642">
        <ele>41.8</ele>
        <time>2014-06-15T08:21:32Z</time>
      </trkpt>
      <trkpt lat="49.9291" lon="2.68614">
        <ele>40.2</ele>
        <time>2014-06-15T08:21:40Z</time>
      </trkpt>
      <trkpt lat="49.92907" lon="2.68592">
        <ele>37.8</ele>
        <time>2014-06-15T08:21:53Z</time>
      </trkpt>
      <trkpt lat="49.92907" lon="2.6857">
        <ele>40.9</ele>
        <time>2014-06-15T08:22:03Z</time>
      </trkpt>
      <trkpt lat="49.92903" lon="2.68549">
        <ele>39.1</ele>
        <time>2014-06-15T08:22:15Z</time>
      </trkpt>
      <trkpt lat="49.92898" lon="2.68529">
        <ele>37.8</ele>
        <time>2014-06-15T08:22:24Z</time>
      </trkpt>
      <trkpt lat="49.92898" lon="2.68507">
        <ele>37.3</ele>
        <time>2014-06-15T08:22:31Z</time>
      </trkpt>
      <trkpt lat="49.92903" lon="2.68484">
        <ele>38.2</ele>
        <time>2014-06-15T08:22:38Z</time>
      </trkpt>
      <trkpt lat="49.92905" lon="2.6846">
        <ele>39.2</ele>
        <time>2014-06-15T08:22:45Z</time>
      </trkpt>
      <trkpt lat="49.92907" lon="2.68438">
        <ele>40.5</ele>
        <time>2014-06-15T08:22:54Z</time>
      </trkpt>
      <trkpt lat="49.92898" lon="2.68422">
        <ele>42.2</ele>
        <time>2014-06-15T08:23:06Z</time>
      </trkpt>
      <trkpt lat="49.9289" lon="2.68404">
        <ele>43</ele>
        <time>2014-06-15T08:23:12Z</time>
      </trkpt>
      <trkpt lat="49.92883" lon="2.68383">
        <ele>38.7</ele>
        <time>2014-06-15T08:23:20Z</time>
      </trkpt>
      <trkpt lat="49.92875" lon="2.68363">
        <ele>37.6</ele>
        <time>2014-06-15T08:23:28Z</time>
      </trkpt>
      <trkpt lat="49.9287" lon="2.68342">
        <ele>38.7</ele>
        <time>2014-06-15T08:23:37Z</time>
      </trkpt>
      <trkpt lat="49.92863" lon="2.68324">
        <ele>39.7</ele>
        <time>2014-06-15T08:23:45Z</time>
      </trkpt>
      <trkpt lat="49.92855" lon="2.68305">
        <ele>37.5</ele>
        <time>2014-06-15T08:23:53Z</time>
      </trkpt>
      <trkpt lat="49.92847" lon="2.68287">
        <ele>35.7</ele>
        <time>2014-06-15T08:24:02Z</time>
      </trkpt>
      <trkpt lat="49.92839" lon="2.68269">
        <ele>35.1</ele>
        <time>2014-06-15T08:24:10Z</time>
      </trkpt>
      <trkpt lat="49.92827" lon="2.68258">
        <ele>34.6</ele>
        <time>2014-06-15T08:24:18Z</time>
      </trkpt>
      <trkpt lat="49.92817" lon="2.68244">
        <ele>33.9</ele>
        <time>2014-06-15T08:24:28Z</time>
      </trkpt>
      <trkpt lat="49.92804" lon="2.68236">
        <ele>33.4</ele>
        <time>2014-06-15T08:24:35Z</time>
      </trkpt>
      <trkpt lat="49.92789" lon="2.68229">
        <ele>33.1</ele>
        <time>2014-06-15T08:24:40Z</time>
      </trkpt>
      <trkpt lat="49.92776" lon="2.68222">
        <ele>35.8</ele>
        <time>2014-06-15T08:24:53Z</time>
      </trkpt>
      <trkpt lat="49.92762" lon="2.68211">
        <ele>34.2</ele>
        <time>2014-06-15T08:25:02Z</time>
      </trkpt>
      <trkpt lat="49.9275" lon="2.68199">
        <ele>32.9</ele>
        <time>2014-06-15T08:25:09Z</time>
      </trkpt>
      <trkpt lat="49.92739" lon="2.68184">
        <ele>32.4</ele>
        <time>2014-06-15T08:25:20Z</time>
      </trkpt>
      <trkpt lat="49.92729" lon="2.68167">
        <ele>32.8</ele>
        <time>2014-06-15T08:25:27Z</time>
      </trkpt>
      <trkpt lat="49.92719" lon="2.68151">
        <ele>33.2</ele>
        <time>2014-06-15T08:25:34Z</time>
      </trkpt>
      <trkpt lat="49.92706" lon="2.68142">
        <ele>33.8</ele>
        <time>2014-06-15T08:25:44Z</time>
      </trkpt>
      <trkpt lat="49.92702" lon="2.68126">
        <ele>34.6</ele>
        <time>2014-06-15T08:25:56Z</time>
      </trkpt>
      <trkpt lat="49.9269" lon="2.68137">
        <ele>35.3</ele>
        <time>2014-06-15T08:26:06Z</time>
      </trkpt>
      <trkpt lat="49.92678" lon="2.68149">
        <ele>36.1</ele>
        <time>2014-06-15T08:26:13Z</time>
      </trkpt>
      <trkpt lat="49.92664" lon="2.68151">
        <ele>36.7</ele>
        <time>2014-06-15T08:26:19Z</time>
      </trkpt>
      <trkpt lat="49.92651" lon="2.68155">
        <ele>37.7</ele>
        <time>2014-06-15T08:26:29Z</time>
      </trkpt>
      <trkpt lat="49.92642" lon="2.68173">
        <ele>39</ele>
        <time>2014-06-15T08:26:41Z</time>
      </trkpt>
      <trkpt lat="49.9263" lon="2.68184">
        <ele>42</ele>
        <time>2014-06-15T08:26:47Z</time>
      </trkpt>
      <trkpt lat="49.92622" lon="2.68204">
        <ele>40</ele>
        <time>2014-06-15T08:26:56Z</time>
      </trkpt>
      <trkpt lat="49.92616" lon="2.68226">
        <ele>37</ele>
        <time>2014-06-15T08:27:08Z</time>
      </trkpt>
      <trkpt lat="49.92612" lon="2.68246">
        <ele>34</ele>
        <time>2014-06-15T08:27:19Z</time>
      </trkpt>
      <trkpt lat="49.92609" lon="2.68268">
        <ele>32.8</ele>
        <time>2014-06-15T08:27:28Z</time>
      </trkpt>
      <trkpt lat="49.926" lon="2.68281">
        <ele>31.6</ele>
        <time>2014-06-15T08:27:44Z</time>
      </trkpt>
      <trkpt lat="49.92594" lon="2.68261">
        <ele>33.7</ele>
        <time>2014-06-15T08:27:51Z</time>
      </trkpt>
      <trkpt lat="49.92595" lon="2.6824">
        <ele>36.6</ele>
        <time>2014-06-15T08:28:00Z</time>
      </trkpt>
      <trkpt lat="49.92597" lon="2.68219">
        <ele>39</ele>
        <time>2014-06-15T08:28:09Z</time>
      </trkpt>
      <trkpt lat="49.926" lon="2.68197">
        <ele>39.4</ele>
        <time>2014-06-15T08:28:19Z</time>
      </trkpt>
      <trkpt lat="49.92598" lon="2.68176">
        <ele>39.8</ele>
        <time>2014-06-15T08:28:28Z</time>
      </trkpt>
      <trkpt lat="49.92596" lon="2.68154">
        <ele>39.4</ele>
        <time>2014-06-15T08:28:42Z</time>
      </trkpt>
      <trkpt lat="49.92588" lon="2.68135">
        <ele>38.8</ele>
        <time>2014-06-15T08:28:50Z</time>
      </trkpt>
      <trkpt lat="49.92584" lon="2.68114">
        <ele>37.4</ele>
        <time>2014-06-15T08:28:58Z</time>
      </trkpt>
      <trkpt lat="49.92584" lon="2.68092">
        <ele>34.3</ele>
        <time>2014-06-15T08:29:11Z</time>
      </trkpt>
      <trkpt lat="49.92581" lon="2.6807">
        <ele>32</ele>
        <time>2014-06-15T08:29:19Z</time>
      </trkpt>
      <trkpt lat="49.92578" lon="2.68049">
        <ele>32</ele>
        <time>2014-06-15T08:29:28Z</time>
      </trkpt>
      <trkpt lat="49.9257" lon="2.68003">
        <ele>32.2</ele>
        <time>2014-06-15T08:29:40Z</time>
      </trkpt>
      <trkpt lat="49.9257" lon="2.68003">
        <ele>32.2</ele>
        <time>2014-06-15T08:30:46Z</time>
      </trkpt>
      <trkpt lat="49.92563" lon="2.67977">
        <ele>33.4</ele>
        <time>2014-06-15T08:31:00Z</time>
      </trkpt>
      <trkpt lat="49.92565" lon="2.67955">
        <ele>34</ele>
        <time>2014-06-15T08:31:09Z</time>
      </trkpt>
      <trkpt lat="49.92563" lon="2.67934">
        <ele>33</ele>
        <time>2014-06-15T08:31:25Z</time>
      </trkpt>
      <trkpt lat="49.92558" lon="2.67922">
        <ele>32.8</ele>
        <time>2014-06-15T08:31:28Z</time>
      </trkpt>
      <trkpt lat="49.92564" lon="2.67903">
        <ele>32.2</ele>
        <time>2014-06-15T08:31:37Z</time>
      </trkpt>
      <trkpt lat="49.92561" lon="2.67881">
        <ele>31.8</ele>
        <time>2014-06-15T08:31:44Z</time>
      </trkpt>
      <trkpt lat="49.92558" lon="2.67859">
        <ele>31.2</ele>
        <time>2014-06-15T08:31:54Z</time>
      </trkpt>
      <trkpt lat="49.92555" lon="2.67838">
        <ele>30.6</ele>
        <time>2014-06-15T08:32:03Z</time>
      </trkpt>
      <trkpt lat="49.92551" lon="2.67816">
        <ele>29.8</ele>
        <time>2014-06-15T08:32:16Z</time>
      </trkpt>
      <trkpt lat="49.92545" lon="2.67796">
        <ele>29.3</ele>
        <time>2014-06-15T08:32:25Z</time>
      </trkpt>
      <trkpt lat="49.92543" lon="2.67775">
        <ele>28.5</ele>
        <time>2014-06-15T08:32:38Z</time>
      </trkpt>
      <trkpt lat="49.92545" lon="2.67752">
        <ele>25.1</ele>
        <time>2014-06-15T08:32:53Z</time>
      </trkpt>
      <trkpt lat="49.9254" lon="2.67731">
        <ele>25.7</ele>
        <time>2014-06-15T08:33:00Z</time>
      </trkpt>
      <trkpt lat="49.9254" lon="2.67709">
        <ele>26.9</ele>
        <time>2014-06-15T08:33:13Z</time>
      </trkpt>
      <trkpt lat="49.92539" lon="2.67686">
        <ele>27.7</ele>
        <time>2014-06-15T08:33:22Z</time>
      </trkpt>
      <trkpt lat="49.92538" lon="2.67664">
        <ele>27.4</ele>
        <time>2014-06-15T08:33:33Z</time>
      </trkpt>
      <trkpt lat="49.92538" lon="2.67642">
        <ele>26.5</ele>
        <time>2014-06-15T08:33:44Z</time>
      </trkpt>
      <trkpt lat="49.92537" lon="2.6762">
        <ele>25.6</ele>
        <time>2014-06-15T08:33:56Z</time>
      </trkpt>
      <trkpt lat="49.92535" lon="2.67598">
        <ele>25.6</ele>
        <time>2014-06-15T08:34:09Z</time>
      </trkpt>
      <trkpt lat="49.92535" lon="2.67575">
        <ele>26.7</ele>
        <time>2014-06-15T08:34:19Z</time>
      </trkpt>
      <trkpt lat="49.92535" lon="2.67553">
        <ele>28</ele>
        <time>2014-06-15T08:34:31Z</time>
      </trkpt>
      <trkpt lat="49.92532" lon="2.6753">
        <ele>28.7</ele>
        <time>2014-06-15T08:34:40Z</time>
      </trkpt>
      <trkpt lat="49.92527" lon="2.67508">
        <ele>29.5</ele>
        <time>2014-06-15T08:34:51Z</time>
      </trkpt>
      <trkpt lat="49.92519" lon="2.6749">
        <ele>30.3</ele>
        <time>2014-06-15T08:35:01Z</time>
      </trkpt>
      <trkpt lat="49.92517" lon="2.67467">
        <ele>32.2</ele>
        <time>2014-06-15T08:35:13Z</time>
      </trkpt>
      <trkpt lat="49.92514" lon="2.67447">
        <ele>37</ele>
        <time>2014-06-15T08:35:22Z</time>
      </trkpt>
      <trkpt lat="49.92515" lon="2.67424">
        <ele>37.8</ele>
        <time>2014-06-15T08:35:32Z</time>
      </trkpt>
      <trkpt lat="49.92504" lon="2.67387">
        <ele>36</ele>
        <time>2014-06-15T08:35:43Z</time>
      </trkpt>
      <trkpt lat="49.92504" lon="2.67387">
        <ele>36</ele>
        <time>2014-06-15T08:36:26Z</time>
      </trkpt>
      <trkpt lat="49.92494" lon="2.67372">
        <ele>33.5</ele>
        <time>2014-06-15T08:36:34Z</time>
      </trkpt>
      <trkpt lat="49.92484" lon="2.67357">
        <ele>32.8</ele>
        <time>2014-06-15T08:36:43Z</time>
      </trkpt>
      <trkpt lat="49.9247" lon="2.67349">
        <ele>31.9</ele>
        <time>2014-06-15T08:36:53Z</time>
      </trkpt>
      <trkpt lat="49.92459" lon="2.67335">
        <ele>30.8</ele>
        <time>2014-06-15T08:37:07Z</time>
      </trkpt>
      <trkpt lat="49.92446" lon="2.67325">
        <ele>29.7</ele>
        <time>2014-06-15T08:37:20Z</time>
      </trkpt>
      <trkpt lat="49.92432" lon="2.67318">
        <ele>29</ele>
        <time>2014-06-15T08:37:29Z</time>
      </trkpt>
      <trkpt lat="49.9242" lon="2.67308">
        <ele>28.3</ele>
        <time>2014-06-15T08:37:37Z</time>
      </trkpt>
      <trkpt lat="49.92405" lon="2.67302">
        <ele>27.8</ele>
        <time>2014-06-15T08:37:47Z</time>
      </trkpt>
      <trkpt lat="49.92392" lon="2.67299">
        <ele>27.5</ele>
        <time>2014-06-15T08:37:55Z</time>
      </trkpt>
      <trkpt lat="49.92378" lon="2.67297">
        <ele>27</ele>
        <time>2014-06-15T08:38:08Z</time>
      </trkpt>
      <trkpt lat="49.92363" lon="2.67291">
        <ele>24.6</ele>
        <time>2014-06-15T08:38:18Z</time>
      </trkpt>
      <trkpt lat="49.92349" lon="2.67289">
        <ele>25.7</ele>
        <time>2014-06-15T08:38:28Z</time>
      </trkpt>
      <trkpt lat="49.92335" lon="2.67283">
        <ele>24.3</ele>
        <time>2014-06-15T08:38:38Z</time>
      </trkpt>
      <trkpt lat="49.92322" lon="2.67278">
        <ele>23.3</ele>
        <time>2014-06-15T08:38:48Z</time>
      </trkpt>
      <trkpt lat="49.92309" lon="2.67274">
        <ele>26.1</ele>
        <time>2014-06-15T08:38:58Z</time>
      </trkpt>
      <trkpt lat="49.92294" lon="2.6727">
        <ele>27.1</ele>
        <time>2014-06-15T08:39:09Z</time>
      </trkpt>
      <trkpt lat="49.92281" lon="2.67265">
        <ele>28.1</ele>
        <time>2014-06-15T08:39:19Z</time>
      </trkpt>
      <trkpt lat="49.92267" lon="2.67259">
        <ele>29</ele>
        <time>2014-06-15T08:39:29Z</time>
      </trkpt>
      <trkpt lat="49.92253" lon="2.67254">
        <ele>30</ele>
        <time>2014-06-15T08:39:40Z</time>
      </trkpt>
      <trkpt lat="49.9224" lon="2.6725">
        <ele>30.7</ele>
        <time>2014-06-15T08:39:48Z</time>
      </trkpt>
      <trkpt lat="49.92226" lon="2.67247">
        <ele>31.7</ele>
        <time>2014-06-15T08:39:59Z</time>
      </trkpt>
      <trkpt lat="49.92213" lon="2.6724">
        <ele>32.5</ele>
        <time>2014-06-15T08:40:08Z</time>
      </trkpt>
      <trkpt lat="49.92198" lon="2.67238">
        <ele>33.4</ele>
        <time>2014-06-15T08:40:19Z</time>
      </trkpt>
      <trkpt lat="49.92184" lon="2.67233">
        <ele>34</ele>
        <time>2014-06-15T08:40:30Z</time>
      </trkpt>
      <trkpt lat="49.92171" lon="2.67227">
        <ele>34.5</ele>
        <time>2014-06-15T08:40:38Z</time>
      </trkpt>
      <trkpt lat="49.92157" lon="2.67222">
        <ele>35</ele>
        <time>2014-06-15T08:40:47Z</time>
      </trkpt>
      <trkpt lat="49.92143" lon="2.6722">
        <ele>35.7</ele>
        <time>2014-06-15T08:40:59Z</time>
      </trkpt>
      <trkpt lat="49.92129" lon="2.67215">
        <ele>36.3</ele>
        <time>2014-06-15T08:41:09Z</time>
      </trkpt>
      <trkpt lat="49.92115" lon="2.67209">
        <ele>36.9</ele>
        <time>2014-06-15T08:41:19Z</time>
      </trkpt>
      <trkpt lat="49.92101" lon="2.67206">
        <ele>37.5</ele>
        <time>2014-06-15T08:41:30Z</time>
      </trkpt>
      <trkpt lat="49.92087" lon="2.67199">
        <ele>38.2</ele>
        <time>2014-06-15T08:41:42Z</time>
      </trkpt>
      <trkpt lat="49.92073" lon="2.6719">
        <ele>38.7</ele>
        <time>2014-06-15T08:41:52Z</time>
      </trkpt>
      <trkpt lat="49.92059" lon="2.67193">
        <ele>38.1</ele>
        <time>2014-06-15T08:42:02Z</time>
      </trkpt>
      <trkpt lat="49.92045" lon="2.67189">
        <ele>36.4</ele>
        <time>2014-06-15T08:42:12Z</time>
      </trkpt>
      <trkpt lat="49.92033" lon="2.67182">
        <ele>34.9</ele>
        <time>2014-06-15T08:42:21Z</time>
      </trkpt>
      <trkpt lat="49.92018" lon="2.67175">
        <ele>34.2</ele>
        <time>2014-06-15T08:42:31Z</time>
      </trkpt>
      <trkpt lat="49.92004" lon="2.6717">
        <ele>33.4</ele>
        <time>2014-06-15T08:42:41Z</time>
      </trkpt>
      <trkpt lat="49.91991" lon="2.67164">
        <ele>32.6</ele>
        <time>2014-06-15T08:42:51Z</time>
      </trkpt>
      <trkpt lat="49.91978" lon="2.67158">
        <ele>32.1</ele>
        <time>2014-06-15T08:43:01Z</time>
      </trkpt>
      <trkpt lat="49.91964" lon="2.67154">
        <ele>32.5</ele>
        <time>2014-06-15T08:43:11Z</time>
      </trkpt>
      <trkpt lat="49.9195" lon="2.6715">
        <ele>32.9</ele>
        <time>2014-06-15T08:43:21Z</time>
      </trkpt>
      <trkpt lat="49.91937" lon="2.67145">
        <ele>33.2</ele>
        <time>2014-06-15T08:43:31Z</time>
      </trkpt>
      <trkpt lat="49.91923" lon="2.6714">
        <ele>33.6</ele>
        <time>2014-06-15T08:43:41Z</time>
      </trkpt>
      <trkpt lat="49.91909" lon="2.67136">
        <ele>34</ele>
        <time>2014-06-15T08:43:51Z</time>
      </trkpt>
      <trkpt lat="49.91895" lon="2.67131">
        <ele>34.5</ele>
        <time>2014-06-15T08:44:02Z</time>
      </trkpt>
      <trkpt lat="49.91881" lon="2.67126">
        <ele>34.9</ele>
        <time>2014-06-15T08:44:14Z</time>
      </trkpt>
      <trkpt lat="49.91868" lon="2.67123">
        <ele>35.5</ele>
        <time>2014-06-15T08:44:24Z</time>
      </trkpt>
      <trkpt lat="49.91854" lon="2.67121">
        <ele>36.1</ele>
        <time>2014-06-15T08:44:33Z</time>
      </trkpt>
      <trkpt lat="49.9184" lon="2.67116">
        <ele>36.8</ele>
        <time>2014-06-15T08:44:44Z</time>
      </trkpt>
      <trkpt lat="49.91826" lon="2.67108">
        <ele>37.4</ele>
        <time>2014-06-15T08:44:54Z</time>
      </trkpt>
      <trkpt lat="49.91813" lon="2.67103">
        <ele>38</ele>
        <time>2014-06-15T08:45:04Z</time>
      </trkpt>
      <trkpt lat="49.91799" lon="2.67099">
        <ele>38.6</ele>
        <time>2014-06-15T08:45:14Z</time>
      </trkpt>
      <trkpt lat="49.91785" lon="2.67096">
        <ele>38.2</ele>
        <time>2014-06-15T08:45:24Z</time>
      </trkpt>
      <trkpt lat="49.91772" lon="2.67092">
        <ele>36.2</ele>
        <time>2014-06-15T08:45:35Z</time>
      </trkpt>
      <trkpt lat="49.91758" lon="2.67089">
        <ele>36.3</ele>
        <time>2014-06-15T08:45:45Z</time>
      </trkpt>
      <trkpt lat="49.91754" lon="2.67087">
        <ele>36.3</ele>
        <time>2014-06-15T08:45:47Z</time>
      </trkpt>
      <trkpt lat="49.91745" lon="2.67066">
        <ele>36.4</ele>
        <time>2014-06-15T08:45:48Z</time>
      </trkpt>
      <trkpt lat="49.91733" lon="2.67051">
        <ele>36.5</ele>
        <time>2014-06-15T08:45:53Z</time>
      </trkpt>
      <trkpt lat="49.91733" lon="2.6706">
        <ele>36.6</ele>
        <time>2014-06-15T08:45:57Z</time>
      </trkpt>
      <trkpt lat="49.91731" lon="2.67058">
        <ele>36.7</ele>
        <time>2014-06-15T08:45:59Z</time>
      </trkpt>
      <trkpt lat="49.91731" lon="2.6706">
        <ele>36.7</ele>
        <time>2014-06-15T08:46:00Z</time>
      </trkpt>
      <trkpt lat="49.91717" lon="2.67059">
        <ele>37</ele>
        <time>2014-06-15T08:46:09Z</time>
      </trkpt>
      <trkpt lat="49.91708" lon="2.67063">
        <ele>37.3</ele>
        <time>2014-06-15T08:46:20Z</time>
      </trkpt>
      <trkpt lat="49.91695" lon="2.67054">
        <ele>37.4</ele>
        <time>2014-06-15T08:46:22Z</time>
      </trkpt>
      <trkpt lat="49.91697" lon="2.67056">
        <ele>37.5</ele>
        <time>2014-06-15T08:46:25Z</time>
      </trkpt>
      <trkpt lat="49.91683" lon="2.67053">
        <ele>37.8</ele>
        <time>2014-06-15T08:46:37Z</time>
      </trkpt>
      <trkpt lat="49.91669" lon="2.67057">
        <ele>38.2</ele>
        <time>2014-06-15T08:46:49Z</time>
      </trkpt>
      <trkpt lat="49.91654" lon="2.67056">
        <ele>38.6</ele>
        <time>2014-06-15T08:47:03Z</time>
      </trkpt>
      <trkpt lat="49.91643" lon="2.67044">
        <ele>39.1</ele>
        <time>2014-06-15T08:47:18Z</time>
      </trkpt>
      <trkpt lat="49.91641" lon="2.67006">
        <ele>40.7</ele>
        <time>2014-06-15T08:47:31Z</time>
      </trkpt>
      <trkpt lat="49.91641" lon="2.67006">
        <ele>40.7</ele>
        <time>2014-06-15T08:55:19Z</time>
      </trkpt>
      <trkpt lat="49.91645" lon="2.66989">
        <ele>41.7</ele>
        <time>2014-06-15T08:55:41Z</time>
      </trkpt>
      <trkpt lat="49.91617" lon="2.66811">
        <ele>-21</ele>
        <time>2014-06-15T09:06:19Z</time>
      </trkpt>
      <trkpt lat="49.91644" lon="2.66798">
        <ele>-18.8</ele>
        <time>2014-06-15T09:06:26Z</time>
      </trkpt>
      <trkpt lat="49.91647" lon="2.66796">
        <ele>-17.1</ele>
        <time>2014-06-15T09:06:29Z</time>
      </trkpt>
      <trkpt lat="49.91667" lon="2.66804">
        <ele>-15</ele>
        <time>2014-06-15T09:06:33Z</time>
      </trkpt>
      <trkpt lat="49.91677" lon="2.66788">
        <ele>-8</ele>
        <time>2014-06-15T09:06:46Z</time>
      </trkpt>
      <trkpt lat="49.91686" lon="2.66773">
        <ele>-2.7</ele>
        <time>2014-06-15T09:06:56Z</time>
      </trkpt>
      <trkpt lat="49.91696" lon="2.66758">
        <ele>2.8</ele>
        <time>2014-06-15T09:07:06Z</time>
      </trkpt>
      <trkpt lat="49.91707" lon="2.66743">
        <ele>8.6</ele>
        <time>2014-06-15T09:07:17Z</time>
      </trkpt>
      <trkpt lat="49.9172" lon="2.66736">
        <ele>15</ele>
        <time>2014-06-15T09:07:29Z</time>
      </trkpt>
      <trkpt lat="49.91734" lon="2.66735">
        <ele>22.5</ele>
        <time>2014-06-15T09:07:43Z</time>
      </trkpt>
      <trkpt lat="49.91748" lon="2.66729">
        <ele>29.5</ele>
        <time>2014-06-15T09:07:56Z</time>
      </trkpt>
      <trkpt lat="49.91761" lon="2.66735">
        <ele>33.7</ele>
        <time>2014-06-15T09:08:04Z</time>
      </trkpt>
      <trkpt lat="49.91775" lon="2.6674">
        <ele>36.4</ele>
        <time>2014-06-15T09:08:13Z</time>
      </trkpt>
      <trkpt lat="49.91789" lon="2.66745">
        <ele>34.2</ele>
        <time>2014-06-15T09:08:25Z</time>
      </trkpt>
      <trkpt lat="49.91802" lon="2.66747">
        <ele>35</ele>
        <time>2014-06-15T09:08:35Z</time>
      </trkpt>
      <trkpt lat="49.91816" lon="2.66754">
        <ele>36.1</ele>
        <time>2014-06-15T09:08:46Z</time>
      </trkpt>
      <trkpt lat="49.91831" lon="2.6676">
        <ele>37.8</ele>
        <time>2014-06-15T09:08:57Z</time>
      </trkpt>
      <trkpt lat="49.91844" lon="2.66768">
        <ele>40.2</ele>
        <time>2014-06-15T09:09:06Z</time>
      </trkpt>
      <trkpt lat="49.91858" lon="2.66766">
        <ele>35.4</ele>
        <time>2014-06-15T09:09:17Z</time>
      </trkpt>
      <trkpt lat="49.91869" lon="2.66768">
        <ele>29.7</ele>
        <time>2014-06-15T09:09:25Z</time>
      </trkpt>
      <trkpt lat="49.91848" lon="2.66755">
        <ele>29</ele>
        <time>2014-06-15T09:09:26Z</time>
      </trkpt>
      <trkpt lat="49.91858" lon="2.66757">
        <ele>27.6</ele>
        <time>2014-06-15T09:09:32Z</time>
      </trkpt>
      <trkpt lat="49.91872" lon="2.66764">
        <ele>31</ele>
        <time>2014-06-15T09:09:36Z</time>
      </trkpt>
      <trkpt lat="49.91886" lon="2.6676">
        <ele>33</ele>
        <time>2014-06-15T09:09:43Z</time>
      </trkpt>
      <trkpt lat="49.91899" lon="2.66763">
        <ele>35.1</ele>
        <time>2014-06-15T09:09:50Z</time>
      </trkpt>
      <trkpt lat="49.91912" lon="2.6677">
        <ele>35.6</ele>
        <time>2014-06-15T09:09:57Z</time>
      </trkpt>
      <trkpt lat="49.91926" lon="2.6677">
        <ele>34.7</ele>
        <time>2014-06-15T09:10:07Z</time>
      </trkpt>
      <trkpt lat="49.9194" lon="2.6677">
        <ele>33.9</ele>
        <time>2014-06-15T09:10:16Z</time>
      </trkpt>
      <trkpt lat="49.91954" lon="2.66773">
        <ele>33.1</ele>
        <time>2014-06-15T09:10:25Z</time>
      </trkpt>
      <trkpt lat="49.91957" lon="2.66748">
        <ele>32.3</ele>
        <time>2014-06-15T09:10:40Z</time>
      </trkpt>
      <trkpt lat="49.91971" lon="2.66744">
        <ele>33.4</ele>
        <time>2014-06-15T09:10:51Z</time>
      </trkpt>
      <trkpt lat="49.91985" lon="2.66749">
        <ele>34.2</ele>
        <time>2014-06-15T09:10:59Z</time>
      </trkpt>
      <trkpt lat="49.91999" lon="2.66746">
        <ele>35.4</ele>
        <time>2014-06-15T09:11:10Z</time>
      </trkpt>
      <trkpt lat="49.92014" lon="2.66749">
        <ele>36.5</ele>
        <time>2014-06-15T09:11:21Z</time>
      </trkpt>
      <trkpt lat="49.92027" lon="2.66753">
        <ele>37.2</ele>
        <time>2014-06-15T09:11:31Z</time>
      </trkpt>
      <trkpt lat="49.92041" lon="2.66757">
        <ele>37.7</ele>
        <time>2014-06-15T09:11:42Z</time>
      </trkpt>
      <trkpt lat="49.92055" lon="2.66764">
        <ele>38</ele>
        <time>2014-06-15T09:11:51Z</time>
      </trkpt>
      <trkpt lat="49.92069" lon="2.66767">
        <ele>39.2</ele>
        <time>2014-06-15T09:12:00Z</time>
      </trkpt>
      <trkpt lat="49.92083" lon="2.6677">
        <ele>41.4</ele>
        <time>2014-06-15T09:12:11Z</time>
      </trkpt>
      <trkpt lat="49.92097" lon="2.66766">
        <ele>43</ele>
        <time>2014-06-15T09:12:19Z</time>
      </trkpt>
      <trkpt lat="49.92116" lon="2.6676">
        <ele>45.2</ele>
        <time>2014-06-15T09:12:30Z</time>
      </trkpt>
      <trkpt lat="49.92121" lon="2.66755">
        <ele>45.6</ele>
        <time>2014-06-15T09:12:32Z</time>
      </trkpt>
      <trkpt lat="49.92122" lon="2.66757">
        <ele>45.8</ele>
        <time>2014-06-15T09:12:33Z</time>
      </trkpt>
      <trkpt lat="49.92121" lon="2.66756">
        <ele>44.5</ele>
        <time>2014-06-15T09:12:36Z</time>
      </trkpt>
      <trkpt lat="49.92135" lon="2.66757">
        <ele>43.5</ele>
        <time>2014-06-15T09:12:46Z</time>
      </trkpt>
      <trkpt lat="49.92148" lon="2.66763">
        <ele>39.1</ele>
        <time>2014-06-15T09:13:01Z</time>
      </trkpt>
      <trkpt lat="49.92162" lon="2.66759">
        <ele>37.8</ele>
        <time>2014-06-15T09:13:08Z</time>
      </trkpt>
      <trkpt lat="49.92163" lon="2.66737">
        <ele>36</ele>
        <time>2014-06-15T09:13:18Z</time>
      </trkpt>
      <trkpt lat="49.92159" lon="2.66715">
        <ele>33.6</ele>
        <time>2014-06-15T09:13:26Z</time>
      </trkpt>
      <trkpt lat="49.92154" lon="2.66694">
        <ele>30.8</ele>
        <time>2014-06-15T09:13:36Z</time>
      </trkpt>
      <trkpt lat="49.92154" lon="2.66671">
        <ele>30</ele>
        <time>2014-06-15T09:13:46Z</time>
      </trkpt>
      <trkpt lat="49.92151" lon="2.66648">
        <ele>27.6</ele>
        <time>2014-06-15T09:14:04Z</time>
      </trkpt>
      <trkpt lat="49.92147" lon="2.66627">
        <ele>32.6</ele>
        <time>2014-06-15T09:14:13Z</time>
      </trkpt>
      <trkpt lat="49.92145" lon="2.66606">
        <ele>34.4</ele>
        <time>2014-06-15T09:14:31Z</time>
      </trkpt>
      <trkpt lat="49.92143" lon="2.66585">
        <ele>33.3</ele>
        <time>2014-06-15T09:14:40Z</time>
      </trkpt>
      <trkpt lat="49.92147" lon="2.66561">
        <ele>32.2</ele>
        <time>2014-06-15T09:14:49Z</time>
      </trkpt>
      <trkpt lat="49.9215" lon="2.6654">
        <ele>31.7</ele>
        <time>2014-06-15T09:14:54Z</time>
      </trkpt>
      <trkpt lat="49.92152" lon="2.66518">
        <ele>30.7</ele>
        <time>2014-06-15T09:15:05Z</time>
      </trkpt>
      <trkpt lat="49.92152" lon="2.66495">
        <ele>29.6</ele>
        <time>2014-06-15T09:15:17Z</time>
      </trkpt>
      <trkpt lat="49.92149" lon="2.66472">
        <ele>29.2</ele>
        <time>2014-06-15T09:15:27Z</time>
      </trkpt>
      <trkpt lat="49.92148" lon="2.66449">
        <ele>29.7</ele>
        <time>2014-06-15T09:15:34Z</time>
      </trkpt>
      <trkpt lat="49.92149" lon="2.66427">
        <ele>30.3</ele>
        <time>2014-06-15T09:15:43Z</time>
      </trkpt>
      <trkpt lat="49.92146" lon="2.66406">
        <ele>31.1</ele>
        <time>2014-06-15T09:15:56Z</time>
      </trkpt>
      <trkpt lat="49.9214" lon="2.66387">
        <ele>31.9</ele>
        <time>2014-06-15T09:16:07Z</time>
      </trkpt>
      <trkpt lat="49.92139" lon="2.66359">
        <ele>33.2</ele>
        <time>2014-06-15T09:16:17Z</time>
      </trkpt>
      <trkpt lat="49.92142" lon="2.66336">
        <ele>35.1</ele>
        <time>2014-06-15T09:16:29Z</time>
      </trkpt>
      <trkpt lat="49.92142" lon="2.66314">
        <ele>36.7</ele>
        <time>2014-06-15T09:16:39Z</time>
      </trkpt>
      <trkpt lat="49.92131" lon="2.66299">
        <ele>38.8</ele>
        <time>2014-06-15T09:16:53Z</time>
      </trkpt>
      <trkpt lat="49.92118" lon="2.66295">
        <ele>37.9</ele>
        <time>2014-06-15T09:17:02Z</time>
      </trkpt>
      <trkpt lat="49.92104" lon="2.66284">
        <ele>36.5</ele>
        <time>2014-06-15T09:17:12Z</time>
      </trkpt>
      <trkpt lat="49.92091" lon="2.66276">
        <ele>39</ele>
        <time>2014-06-15T09:17:22Z</time>
      </trkpt>
      <trkpt lat="49.92077" lon="2.6628">
        <ele>41</ele>
        <time>2014-06-15T09:17:33Z</time>
      </trkpt>
      <trkpt lat="49.92064" lon="2.66281">
        <ele>41</ele>
        <time>2014-06-15T09:17:45Z</time>
      </trkpt>
      <trkpt lat="49.92051" lon="2.66273">
        <ele>39.1</ele>
        <time>2014-06-15T09:18:00Z</time>
      </trkpt>
      <trkpt lat="49.92037" lon="2.66269">
        <ele>37.5</ele>
        <time>2014-06-15T09:18:13Z</time>
      </trkpt>
      <trkpt lat="49.92023" lon="2.66262">
        <ele>40.2</ele>
        <time>2014-06-15T09:18:23Z</time>
      </trkpt>
      <trkpt lat="49.9201" lon="2.66253">
        <ele>40.5</ele>
        <time>2014-06-15T09:18:31Z</time>
      </trkpt>
      <trkpt lat="49.91997" lon="2.66246">
        <ele>40.8</ele>
        <time>2014-06-15T09:18:40Z</time>
      </trkpt>
      <trkpt lat="49.91984" lon="2.66237">
        <ele>41.1</ele>
        <time>2014-06-15T09:18:48Z</time>
      </trkpt>
      <trkpt lat="49.9197" lon="2.66231">
        <ele>41.6</ele>
        <time>2014-06-15T09:19:00Z</time>
      </trkpt>
      <trkpt lat="49.91956" lon="2.66225">
        <ele>41.9</ele>
        <time>2014-06-15T09:19:09Z</time>
      </trkpt>
      <trkpt lat="49.91943" lon="2.66217">
        <ele>42.4</ele>
        <time>2014-06-15T09:19:23Z</time>
      </trkpt>
      <trkpt lat="49.91929" lon="2.66215">
        <ele>42.8</ele>
        <time>2014-06-15T09:19:34Z</time>
      </trkpt>
      <trkpt lat="49.91917" lon="2.66207">
        <ele>43.8</ele>
        <time>2014-06-15T09:19:46Z</time>
      </trkpt>
      <trkpt lat="49.91904" lon="2.66201">
        <ele>44.8</ele>
        <time>2014-06-15T09:19:57Z</time>
      </trkpt>
      <trkpt lat="49.91892" lon="2.66189">
        <ele>45.8</ele>
        <time>2014-06-15T09:20:07Z</time>
      </trkpt>
      <trkpt lat="49.91879" lon="2.66185">
        <ele>47.7</ele>
        <time>2014-06-15T09:20:20Z</time>
      </trkpt>
      <trkpt lat="49.91866" lon="2.66179">
        <ele>49.4</ele>
        <time>2014-06-15T09:20:31Z</time>
      </trkpt>
      <trkpt lat="49.91853" lon="2.66166">
        <ele>51.5</ele>
        <time>2014-06-15T09:20:42Z</time>
      </trkpt>
      <trkpt lat="49.91839" lon="2.66164">
        <ele>56</ele>
        <time>2014-06-15T09:20:55Z</time>
      </trkpt>
      <trkpt lat="49.91825" lon="2.66164">
        <ele>58.1</ele>
        <time>2014-06-15T09:21:03Z</time>
      </trkpt>
      <trkpt lat="49.9181" lon="2.66158">
        <ele>60.2</ele>
        <time>2014-06-15T09:21:12Z</time>
      </trkpt>
      <trkpt lat="49.91796" lon="2.66155">
        <ele>61.9</ele>
        <time>2014-06-15T09:21:26Z</time>
      </trkpt>
      <trkpt lat="49.91783" lon="2.66145">
        <ele>63.7</ele>
        <time>2014-06-15T09:21:37Z</time>
      </trkpt>
      <trkpt lat="49.91769" lon="2.66144">
        <ele>63.1</ele>
        <time>2014-06-15T09:21:44Z</time>
      </trkpt>
      <trkpt lat="49.91756" lon="2.66138">
        <ele>62.4</ele>
        <time>2014-06-15T09:21:52Z</time>
      </trkpt>
      <trkpt lat="49.91743" lon="2.66129">
        <ele>64.3</ele>
        <time>2014-06-15T09:22:02Z</time>
      </trkpt>
      <trkpt lat="49.91728" lon="2.66126">
        <ele>66.3</ele>
        <time>2014-06-15T09:22:16Z</time>
      </trkpt>
      <trkpt lat="49.91714" lon="2.66123">
        <ele>67.1</ele>
        <time>2014-06-15T09:22:28Z</time>
      </trkpt>
      <trkpt lat="49.91702" lon="2.66116">
        <ele>67.7</ele>
        <time>2014-06-15T09:22:38Z</time>
      </trkpt>
      <trkpt lat="49.91687" lon="2.66112">
        <ele>68.3</ele>
        <time>2014-06-15T09:22:48Z</time>
      </trkpt>
      <trkpt lat="49.91674" lon="2.66104">
        <ele>69</ele>
        <time>2014-06-15T09:22:59Z</time>
      </trkpt>
      <trkpt lat="49.9166" lon="2.66098">
        <ele>67.9</ele>
        <time>2014-06-15T09:23:10Z</time>
      </trkpt>
      <trkpt lat="49.91646" lon="2.66099">
        <ele>66.5</ele>
        <time>2014-06-15T09:23:23Z</time>
      </trkpt>
      <trkpt lat="49.91633" lon="2.66104">
        <ele>66.4</ele>
        <time>2014-06-15T09:23:34Z</time>
      </trkpt>
      <trkpt lat="49.91624" lon="2.6612">
        <ele>69.7</ele>
        <time>2014-06-15T09:23:47Z</time>
      </trkpt>
      <trkpt lat="49.91624" lon="2.6612">
        <ele>69.7</ele>
        <time>2014-06-15T09:29:28Z</time>
      </trkpt>
      <trkpt lat="49.91625" lon="2.66122">
        <ele>72.3</ele>
        <time>2014-06-15T09:29:31Z</time>
      </trkpt>
      <trkpt lat="49.91634" lon="2.66104">
        <ele>75.3</ele>
        <time>2014-06-15T09:29:46Z</time>
      </trkpt>
      <trkpt lat="49.91634" lon="2.66083">
        <ele>76.2</ele>
        <time>2014-06-15T09:29:59Z</time>
      </trkpt>
      <trkpt lat="49.91629" lon="2.66064">
        <ele>77</ele>
        <time>2014-06-15T09:30:10Z</time>
      </trkpt>
      <trkpt lat="49.91634" lon="2.66044">
        <ele>77.7</ele>
        <time>2014-06-15T09:30:21Z</time>
      </trkpt>
      <trkpt lat="49.91627" lon="2.66025">
        <ele>76.9</ele>
        <time>2014-06-15T09:30:32Z</time>
      </trkpt>
      <trkpt lat="49.91618" lon="2.66009">
        <ele>75.8</ele>
        <time>2014-06-15T09:30:42Z</time>
      </trkpt>
      <trkpt lat="49.91609" lon="2.65991">
        <ele>74.7</ele>
        <time>2014-06-15T09:30:53Z</time>
      </trkpt>
      <trkpt lat="49.91598" lon="2.65976">
        <ele>73.5</ele>
        <time>2014-06-15T09:31:04Z</time>
      </trkpt>
      <trkpt lat="49.91589" lon="2.6596">
        <ele>72.3</ele>
        <time>2014-06-15T09:31:16Z</time>
      </trkpt>
      <trkpt lat="49.91575" lon="2.65961">
        <ele>71.2</ele>
        <time>2014-06-15T09:31:26Z</time>
      </trkpt>
      <trkpt lat="49.91562" lon="2.65968">
        <ele>70</ele>
        <time>2014-06-15T09:31:37Z</time>
      </trkpt>
      <trkpt lat="49.9155" lon="2.65981">
        <ele>69.1</ele>
        <time>2014-06-15T09:31:48Z</time>
      </trkpt>
      <trkpt lat="49.91536" lon="2.65983">
        <ele>69.6</ele>
        <time>2014-06-15T09:31:57Z</time>
      </trkpt>
      <trkpt lat="49.91523" lon="2.65988">
        <ele>70.7</ele>
        <time>2014-06-15T09:32:07Z</time>
      </trkpt>
      <trkpt lat="49.91509" lon="2.65992">
        <ele>72.3</ele>
        <time>2014-06-15T09:32:18Z</time>
      </trkpt>
      <trkpt lat="49.91494" lon="2.65994">
        <ele>73.1</ele>
        <time>2014-06-15T09:32:28Z</time>
      </trkpt>
      <trkpt lat="49.91481" lon="2.66001">
        <ele>74</ele>
        <time>2014-06-15T09:32:39Z</time>
      </trkpt>
      <trkpt lat="49.91468" lon="2.66007">
        <ele>74.8</ele>
        <time>2014-06-15T09:32:49Z</time>
      </trkpt>
      <trkpt lat="49.91454" lon="2.66012">
        <ele>76.7</ele>
        <time>2014-06-15T09:32:59Z</time>
      </trkpt>
      <trkpt lat="49.9144" lon="2.66014">
        <ele>78.7</ele>
        <time>2014-06-15T09:33:09Z</time>
      </trkpt>
      <trkpt lat="49.91427" lon="2.66023">
        <ele>73.2</ele>
        <time>2014-06-15T09:33:22Z</time>
      </trkpt>
      <trkpt lat="49.91412" lon="2.66028">
        <ele>74.3</ele>
        <time>2014-06-15T09:33:30Z</time>
      </trkpt>
      <trkpt lat="49.914" lon="2.66036">
        <ele>75.7</ele>
        <time>2014-06-15T09:33:42Z</time>
      </trkpt>
      <trkpt lat="49.91385" lon="2.6604">
        <ele>77.5</ele>
        <time>2014-06-15T09:33:50Z</time>
      </trkpt>
      <trkpt lat="49.91371" lon="2.66041">
        <ele>78.8</ele>
        <time>2014-06-15T09:34:00Z</time>
      </trkpt>
      <trkpt lat="49.91357" lon="2.66043">
        <ele>78</ele>
        <time>2014-06-15T09:34:13Z</time>
      </trkpt>
      <trkpt lat="49.91344" lon="2.66053">
        <ele>77.4</ele>
        <time>2014-06-15T09:34:23Z</time>
      </trkpt>
      <trkpt lat="49.91331" lon="2.66057">
        <ele>76.9</ele>
        <time>2014-06-15T09:34:32Z</time>
      </trkpt>
      <trkpt lat="49.91317" lon="2.66064">
        <ele>76.3</ele>
        <time>2014-06-15T09:34:42Z</time>
      </trkpt>
      <trkpt lat="49.91303" lon="2.66068">
        <ele>75.7</ele>
        <time>2014-06-15T09:34:51Z</time>
      </trkpt>
      <trkpt lat="49.9129" lon="2.66077">
        <ele>75.1</ele>
        <time>2014-06-15T09:35:02Z</time>
      </trkpt>
      <trkpt lat="49.91276" lon="2.66084">
        <ele>74.4</ele>
        <time>2014-06-15T09:35:13Z</time>
      </trkpt>
      <trkpt lat="49.91263" lon="2.66091">
        <ele>73.8</ele>
        <time>2014-06-15T09:35:22Z</time>
      </trkpt>
      <trkpt lat="49.91249" lon="2.66098">
        <ele>73</ele>
        <time>2014-06-15T09:35:32Z</time>
      </trkpt>
      <trkpt lat="49.91236" lon="2.66103">
        <ele>72</ele>
        <time>2014-06-15T09:35:43Z</time>
      </trkpt>
      <trkpt lat="49.91222" lon="2.66108">
        <ele>72</ele>
        <time>2014-06-15T09:35:53Z</time>
      </trkpt>
      <trkpt lat="49.91208" lon="2.66109">
        <ele>69.6</ele>
        <time>2014-06-15T09:36:04Z</time>
      </trkpt>
      <trkpt lat="49.91195" lon="2.66115">
        <ele>67.7</ele>
        <time>2014-06-15T09:36:13Z</time>
      </trkpt>
      <trkpt lat="49.91182" lon="2.66124">
        <ele>69.5</ele>
        <time>2014-06-15T09:36:23Z</time>
      </trkpt>
      <trkpt lat="49.91169" lon="2.66132">
        <ele>67.5</ele>
        <time>2014-06-15T09:36:32Z</time>
      </trkpt>
      <trkpt lat="49.91154" lon="2.66135">
        <ele>68.9</ele>
        <time>2014-06-15T09:36:45Z</time>
      </trkpt>
      <trkpt lat="49.91141" lon="2.66138">
        <ele>69.9</ele>
        <time>2014-06-15T09:36:54Z</time>
      </trkpt>
      <trkpt lat="49.91127" lon="2.66144">
        <ele>68.9</ele>
        <time>2014-06-15T09:37:05Z</time>
      </trkpt>
      <trkpt lat="49.91113" lon="2.66151">
        <ele>67.9</ele>
        <time>2014-06-15T09:37:15Z</time>
      </trkpt>
      <trkpt lat="49.91099" lon="2.66156">
        <ele>69.5</ele>
        <time>2014-06-15T09:37:26Z</time>
      </trkpt>
      <trkpt lat="49.91085" lon="2.66156">
        <ele>71.2</ele>
        <time>2014-06-15T09:37:35Z</time>
      </trkpt>
      <trkpt lat="49.91071" lon="2.66161">
        <ele>69.9</ele>
        <time>2014-06-15T09:37:45Z</time>
      </trkpt>
      <trkpt lat="49.91058" lon="2.66167">
        <ele>68.8</ele>
        <time>2014-06-15T09:37:53Z</time>
      </trkpt>
      <trkpt lat="49.91044" lon="2.66175">
        <ele>67.4</ele>
        <time>2014-06-15T09:38:04Z</time>
      </trkpt>
      <trkpt lat="49.91031" lon="2.66182">
        <ele>66.1</ele>
        <time>2014-06-15T09:38:14Z</time>
      </trkpt>
      <trkpt lat="49.91019" lon="2.66194">
        <ele>64.7</ele>
        <time>2014-06-15T09:38:25Z</time>
      </trkpt>
      <trkpt lat="49.91005" lon="2.66198">
        <ele>64.2</ele>
        <time>2014-06-15T09:38:36Z</time>
      </trkpt>
      <trkpt lat="49.90991" lon="2.66202">
        <ele>64.8</ele>
        <time>2014-06-15T09:38:46Z</time>
      </trkpt>
      <trkpt lat="49.90977" lon="2.66207">
        <ele>65</ele>
        <time>2014-06-15T09:38:56Z</time>
      </trkpt>
      <trkpt lat="49.90963" lon="2.66208">
        <ele>69.3</ele>
        <time>2014-06-15T09:39:07Z</time>
      </trkpt>
      <trkpt lat="49.90948" lon="2.66211">
        <ele>68.5</ele>
        <time>2014-06-15T09:39:16Z</time>
      </trkpt>
      <trkpt lat="49.90935" lon="2.66221">
        <ele>66.2</ele>
        <time>2014-06-15T09:39:27Z</time>
      </trkpt>
      <trkpt lat="49.90922" lon="2.66232">
        <ele>64</ele>
        <time>2014-06-15T09:39:36Z</time>
      </trkpt>
      <trkpt lat="49.90907" lon="2.66236">
        <ele>62.8</ele>
        <time>2014-06-15T09:39:46Z</time>
      </trkpt>
      <trkpt lat="49.90893" lon="2.66238">
        <ele>62.5</ele>
        <time>2014-06-15T09:39:57Z</time>
      </trkpt>
      <trkpt lat="49.9088" lon="2.66247">
        <ele>62.1</ele>
        <time>2014-06-15T09:40:09Z</time>
      </trkpt>
      <trkpt lat="49.90871" lon="2.66229">
        <ele>61.7</ele>
        <time>2014-06-15T09:40:21Z</time>
      </trkpt>
      <trkpt lat="49.90872" lon="2.66223">
        <ele>61.6</ele>
        <time>2014-06-15T09:40:24Z</time>
      </trkpt>
      <trkpt lat="49.90882" lon="2.66208">
        <ele>61.3</ele>
        <time>2014-06-15T09:40:35Z</time>
      </trkpt>
      <trkpt lat="49.90886" lon="2.66187">
        <ele>60.9</ele>
        <time>2014-06-15T09:40:48Z</time>
      </trkpt>
      <trkpt lat="49.90894" lon="2.66169">
        <ele>60.5</ele>
        <time>2014-06-15T09:40:59Z</time>
      </trkpt>
      <trkpt lat="49.90899" lon="2.66147">
        <ele>60.1</ele>
        <time>2014-06-15T09:41:13Z</time>
      </trkpt>
      <trkpt lat="49.90904" lon="2.66126">
        <ele>62.6</ele>
        <time>2014-06-15T09:41:25Z</time>
      </trkpt>
      <trkpt lat="49.9091" lon="2.66107">
        <ele>65.5</ele>
        <time>2014-06-15T09:41:36Z</time>
      </trkpt>
      <trkpt lat="49.90914" lon="2.66085">
        <ele>68.7</ele>
        <time>2014-06-15T09:41:48Z</time>
      </trkpt>
      <trkpt lat="49.90923" lon="2.66068">
        <ele>71.6</ele>
        <time>2014-06-15T09:41:59Z</time>
      </trkpt>
      <trkpt lat="49.90931" lon="2.6605">
        <ele>73.9</ele>
        <time>2014-06-15T09:42:09Z</time>
      </trkpt>
      <trkpt lat="49.90938" lon="2.66033">
        <ele>73.6</ele>
        <time>2014-06-15T09:42:20Z</time>
      </trkpt>
      <trkpt lat="49.9094" lon="2.66023">
        <ele>73.4</ele>
        <time>2014-06-15T09:42:25Z</time>
      </trkpt>
      <trkpt lat="49.90949" lon="2.66005">
        <ele>73.1</ele>
        <time>2014-06-15T09:42:35Z</time>
      </trkpt>
      <trkpt lat="49.90952" lon="2.65984">
        <ele>74</ele>
        <time>2014-06-15T09:42:45Z</time>
      </trkpt>
      <trkpt lat="49.9096" lon="2.65967">
        <ele>72.4</ele>
        <time>2014-06-15T09:42:56Z</time>
      </trkpt>
      <trkpt lat="49.90964" lon="2.65945">
        <ele>71</ele>
        <time>2014-06-15T09:43:08Z</time>
      </trkpt>
      <trkpt lat="49.90969" lon="2.65926">
        <ele>69.9</ele>
        <time>2014-06-15T09:43:18Z</time>
      </trkpt>
      <trkpt lat="49.90974" lon="2.65905">
        <ele>69.3</ele>
        <time>2014-06-15T09:43:31Z</time>
      </trkpt>
      <trkpt lat="49.90978" lon="2.65884">
        <ele>70</ele>
        <time>2014-06-15T09:43:44Z</time>
      </trkpt>
      <trkpt lat="49.90985" lon="2.65866">
        <ele>70.6</ele>
        <time>2014-06-15T09:43:55Z</time>
      </trkpt>
      <trkpt lat="49.90987" lon="2.65863">
        <ele>70.7</ele>
        <time>2014-06-15T09:43:58Z</time>
      </trkpt>
      <trkpt lat="49.90986" lon="2.65852">
        <ele>71.1</ele>
        <time>2014-06-15T09:44:06Z</time>
      </trkpt>
      <trkpt lat="49.90996" lon="2.65837">
        <ele>71.6</ele>
        <time>2014-06-15T09:44:14Z</time>
      </trkpt>
      <trkpt lat="49.91004" lon="2.65818">
        <ele>72.1</ele>
        <time>2014-06-15T09:44:23Z</time>
      </trkpt>
      <trkpt lat="49.91011" lon="2.658">
        <ele>73.6</ele>
        <time>2014-06-15T09:44:34Z</time>
      </trkpt>
      <trkpt lat="49.91018" lon="2.65781">
        <ele>75</ele>
        <time>2014-06-15T09:44:44Z</time>
      </trkpt>
      <trkpt lat="49.91019" lon="2.6576">
        <ele>73.6</ele>
        <time>2014-06-15T09:44:57Z</time>
      </trkpt>
      <trkpt lat="49.91024" lon="2.6574">
        <ele>72.1</ele>
        <time>2014-06-15T09:45:10Z</time>
      </trkpt>
      <trkpt lat="49.91032" lon="2.65722">
        <ele>72.7</ele>
        <time>2014-06-15T09:45:21Z</time>
      </trkpt>
      <trkpt lat="49.91039" lon="2.65702">
        <ele>73.6</ele>
        <time>2014-06-15T09:45:33Z</time>
      </trkpt>
      <trkpt lat="49.91046" lon="2.65683">
        <ele>74.5</ele>
        <time>2014-06-15T09:45:44Z</time>
      </trkpt>
      <trkpt lat="49.91051" lon="2.65663">
        <ele>74.5</ele>
        <time>2014-06-15T09:45:56Z</time>
      </trkpt>
      <trkpt lat="49.91058" lon="2.65644">
        <ele>73.5</ele>
        <time>2014-06-15T09:46:07Z</time>
      </trkpt>
      <trkpt lat="49.91061" lon="2.65623">
        <ele>72.4</ele>
        <time>2014-06-15T09:46:19Z</time>
      </trkpt>
      <trkpt lat="49.91069" lon="2.65603">
        <ele>71.4</ele>
        <time>2014-06-15T09:46:30Z</time>
      </trkpt>
      <trkpt lat="49.91076" lon="2.65584">
        <ele>72.9</ele>
        <time>2014-06-15T09:46:41Z</time>
      </trkpt>
      <trkpt lat="49.91081" lon="2.65564">
        <ele>68.8</ele>
        <time>2014-06-15T09:46:53Z</time>
      </trkpt>
      <trkpt lat="49.91083" lon="2.65542">
        <ele>70.6</ele>
        <time>2014-06-15T09:47:04Z</time>
      </trkpt>
      <trkpt lat="49.91071" lon="2.65532">
        <ele>68.6</ele>
        <time>2014-06-15T09:47:15Z</time>
      </trkpt>
      <trkpt lat="49.91061" lon="2.65516">
        <ele>66.9</ele>
        <time>2014-06-15T09:47:28Z</time>
      </trkpt>
      <trkpt lat="49.91052" lon="2.655">
        <ele>65.8</ele>
        <time>2014-06-15T09:47:38Z</time>
      </trkpt>
      <trkpt lat="49.91043" lon="2.65482">
        <ele>63.9</ele>
        <time>2014-06-15T09:47:55Z</time>
      </trkpt>
      <trkpt lat="49.91033" lon="2.65467">
        <ele>63</ele>
        <time>2014-06-15T09:48:03Z</time>
      </trkpt>
      <trkpt lat="49.9102" lon="2.65456">
        <ele>61.8</ele>
        <time>2014-06-15T09:48:13Z</time>
      </trkpt>
      <trkpt lat="49.91009" lon="2.65443">
        <ele>60</ele>
        <time>2014-06-15T09:48:26Z</time>
      </trkpt>
      <trkpt lat="49.91001" lon="2.65425">
        <ele>58.7</ele>
        <time>2014-06-15T09:48:37Z</time>
      </trkpt>
      <trkpt lat="49.9099" lon="2.65411">
        <ele>57.3</ele>
        <time>2014-06-15T09:48:49Z</time>
      </trkpt>
      <trkpt lat="49.90979" lon="2.65396">
        <ele>56.1</ele>
        <time>2014-06-15T09:49:00Z</time>
      </trkpt>
      <trkpt lat="49.90971" lon="2.65378">
        <ele>56.7</ele>
        <time>2014-06-15T09:49:09Z</time>
      </trkpt>
      <trkpt lat="49.90963" lon="2.65362">
        <ele>56.1</ele>
        <time>2014-06-15T09:49:17Z</time>
      </trkpt>
      <trkpt lat="49.90954" lon="2.65344">
        <ele>54.4</ele>
        <time>2014-06-15T09:49:26Z</time>
      </trkpt>
      <trkpt lat="49.90945" lon="2.65329">
        <ele>52.9</ele>
        <time>2014-06-15T09:49:34Z</time>
      </trkpt>
      <trkpt lat="49.90935" lon="2.65314">
        <ele>49.6</ele>
        <time>2014-06-15T09:49:42Z</time>
      </trkpt>
      <trkpt lat="49.90926" lon="2.65297">
        <ele>48.4</ele>
        <time>2014-06-15T09:49:51Z</time>
      </trkpt>
      <trkpt lat="49.90914" lon="2.65285">
        <ele>48.4</ele>
        <time>2014-06-15T09:50:03Z</time>
      </trkpt>
      <trkpt lat="49.90903" lon="2.65269">
        <ele>48</ele>
        <time>2014-06-15T09:50:14Z</time>
      </trkpt>
      <trkpt lat="49.90894" lon="2.65251">
        <ele>48</ele>
        <time>2014-06-15T09:50:23Z</time>
      </trkpt>
      <trkpt lat="49.90884" lon="2.65236">
        <ele>48</ele>
        <time>2014-06-15T09:50:35Z</time>
      </trkpt>
      <trkpt lat="49.90861" lon="2.65207">
        <ele>44.5</ele>
        <time>2014-06-15T09:50:54Z</time>
      </trkpt>
      <trkpt lat="49.90861" lon="2.65207">
        <ele>44.5</ele>
        <time>2014-06-15T09:54:59Z</time>
      </trkpt>
      <trkpt lat="49.90847" lon="2.65193">
        <ele>42</ele>
        <time>2014-06-15T09:54:59Z</time>
      </trkpt>
      <trkpt lat="49.90836" lon="2.65179">
        <ele>41</ele>
        <time>2014-06-15T09:55:14Z</time>
      </trkpt>
      <trkpt lat="49.90828" lon="2.6516">
        <ele>40.4</ele>
        <time>2014-06-15T09:55:23Z</time>
      </trkpt>
      <trkpt lat="49.90818" lon="2.65143">
        <ele>39.8</ele>
        <time>2014-06-15T09:55:32Z</time>
      </trkpt>
      <trkpt lat="49.90812" lon="2.65124">
        <ele>39.1</ele>
        <time>2014-06-15T09:55:43Z</time>
      </trkpt>
      <trkpt lat="49.90825" lon="2.65111">
        <ele>39.6</ele>
        <time>2014-06-15T09:55:57Z</time>
      </trkpt>
      <trkpt lat="49.90838" lon="2.65104">
        <ele>40</ele>
        <time>2014-06-15T09:56:05Z</time>
      </trkpt>
      <trkpt lat="49.90845" lon="2.65086">
        <ele>40.5</ele>
        <time>2014-06-15T09:56:16Z</time>
      </trkpt>
      <trkpt lat="49.90856" lon="2.65075">
        <ele>40.9</ele>
        <time>2014-06-15T09:56:25Z</time>
      </trkpt>
      <trkpt lat="49.90858" lon="2.65053">
        <ele>41.3</ele>
        <time>2014-06-15T09:56:35Z</time>
      </trkpt>
      <trkpt lat="49.90868" lon="2.65038">
        <ele>41.8</ele>
        <time>2014-06-15T09:56:46Z</time>
      </trkpt>
      <trkpt lat="49.90878" lon="2.65022">
        <ele>42.5</ele>
        <time>2014-06-15T09:57:00Z</time>
      </trkpt>
      <trkpt lat="49.90886" lon="2.64992">
        <ele>40.1</ele>
        <time>2014-06-15T09:57:18Z</time>
      </trkpt>
      <trkpt lat="49.90886" lon="2.64992">
        <ele>40.1</ele>
        <time>2014-06-15T09:59:27Z</time>
      </trkpt>
      <trkpt lat="49.90884" lon="2.64979">
        <ele>37.1</ele>
        <time>2014-06-15T09:59:30Z</time>
      </trkpt>
      <trkpt lat="49.90872" lon="2.64969">
        <ele>35.8</ele>
        <time>2014-06-15T09:59:38Z</time>
      </trkpt>
      <trkpt lat="49.90858" lon="2.64966">
        <ele>35.4</ele>
        <time>2014-06-15T09:59:59Z</time>
      </trkpt>
    </trkseg>
  </trk>
</gpx>